UAE48 EDDF-OMDB
Flight info
| Callsign | UAE48 |
|---|---|
| Flight time | 6h 42m |
| Altitude | 37000 |
| Route | CINDY8S/18 CINDY Z74 LAMPU DCT NOMBO Y161 MAH DCT VAVOR DCT RADIZ DCT NIPEL/N0462F390 DCT ELTIB DCT GLOMY DCT PETAK DCT DIMIS UL604 SALUN N705 MMA P751 DASUM Y234 FYM M872 BDB Y214 RAPMA DCT KUVSO DCT KATIT DCT PEKEM M628 RIGIL G783 ELUDA/N0487F350 G783 ASPED Q308 KIPOK/N0490F340 Q568 IMPED |
| Aircraft | A332/H-SDE3GHIJ2J3J5M1RVWXY/LB2D1 |
Departure
| Time | 2026-05-03 22:31 |
|---|---|
| Airport | Frankfurt Main Airport (EDDF) |
Arrival
| Time | 2026-05-04 05:13 |
|---|---|
| Airport | Dubai International Airport (OMDB) |
| Time | Latitude | Longitude | Altitude | Speed | Heading |
|---|---|---|---|---|---|
| 2026-05-03 21:58 | 50.03225 | 8.57580 | 364 ft | 0 kts | 206° |
| 2026-05-03 22:17 | 50.03226 | 8.57580 | 364 ft | 1 kts | 206° |
| 2026-05-03 22:17 | 50.03240 | 8.57591 | 367 ft | 2 kts | 211° |
| 2026-05-03 22:18 | 50.03254 | 8.57605 | 370 ft | 2 kts | 215° |
| 2026-05-03 22:18 | 50.03267 | 8.57621 | 368 ft | 2 kts | 222° |
| 2026-05-03 22:18 | 50.03278 | 8.57639 | 369 ft | 2 kts | 234° |
| 2026-05-03 22:18 | 50.03287 | 8.57661 | 369 ft | 2 kts | 250° |
| 2026-05-03 22:19 | 50.03290 | 8.57685 | 370 ft | 2 kts | 270° |
| 2026-05-03 22:19 | 50.03288 | 8.57711 | 367 ft | 2 kts | 284° |
| 2026-05-03 22:19 | 50.03286 | 8.57724 | 367 ft | 1 kts | 288° |
| 2026-05-03 22:19 | 50.03286 | 8.57726 | 367 ft | 0 kts | 288° |
| 2026-05-03 22:20 | 50.03293 | 8.57707 | 370 ft | 6 kts | 304° |
| 2026-05-03 22:20 | 50.03317 | 8.57686 | 371 ft | 0 kts | 339° |
| 2026-05-03 22:21 | 50.03318 | 8.57685 | 371 ft | 2 kts | 339° |
| 2026-05-03 22:22 | 50.03358 | 8.57663 | 371 ft | 8 kts | 339° |
| 2026-05-03 22:22 | 50.03411 | 8.57632 | 369 ft | 8 kts | 339° |
| 2026-05-03 22:22 | 50.03448 | 8.57593 | 371 ft | 6 kts | 306° |
| 2026-05-03 22:22 | 50.03446 | 8.57505 | 373 ft | 12 kts | 250° |
| 2026-05-03 22:23 | 50.03410 | 8.57352 | 367 ft | 17 kts | 250° |
| 2026-05-03 22:23 | 50.03366 | 8.57166 | 365 ft | 19 kts | 250° |
| 2026-05-03 22:23 | 50.03320 | 8.56975 | 366 ft | 18 kts | 250° |
| 2026-05-03 22:23 | 50.03279 | 8.56795 | 365 ft | 18 kts | 249° |
| 2026-05-03 22:24 | 50.03234 | 8.56606 | 363 ft | 19 kts | 250° |
| 2026-05-03 22:24 | 50.03185 | 8.56396 | 363 ft | 22 kts | 250° |
| 2026-05-03 22:24 | 50.03132 | 8.56168 | 362 ft | 23 kts | 250° |
| 2026-05-03 22:24 | 50.03074 | 8.55930 | 360 ft | 24 kts | 249° |
| 2026-05-03 22:25 | 50.03015 | 8.55688 | 360 ft | 24 kts | 249° |
| 2026-05-03 22:25 | 50.02959 | 8.55453 | 360 ft | 23 kts | 250° |
| 2026-05-03 22:25 | 50.02900 | 8.55203 | 362 ft | 25 kts | 250° |
| 2026-05-03 22:25 | 50.02837 | 8.54934 | 353 ft | 28 kts | 250° |
| 2026-05-03 22:26 | 50.02767 | 8.54646 | 352 ft | 29 kts | 249° |
| 2026-05-03 22:26 | 50.02695 | 8.54355 | 348 ft | 28 kts | 249° |
| 2026-05-03 22:26 | 50.02635 | 8.54063 | 334 ft | 28 kts | 251° |
| 2026-05-03 22:26 | 50.02567 | 8.53771 | 332 ft | 29 kts | 249° |
| 2026-05-03 22:27 | 50.02494 | 8.53472 | 327 ft | 30 kts | 249° |
| 2026-05-03 22:27 | 50.02428 | 8.53188 | 335 ft | 25 kts | 251° |
| 2026-05-03 22:27 | 50.02421 | 8.52992 | 359 ft | 13 kts | 291° |
| 2026-05-03 22:27 | 50.02474 | 8.52876 | 370 ft | 15 kts | 317° |
| 2026-05-03 22:28 | 50.02582 | 8.52830 | 367 ft | 19 kts | 0° |
| 2026-05-03 22:28 | 50.02736 | 8.52829 | 370 ft | 24 kts | 0° |
| 2026-05-03 22:28 | 50.02907 | 8.52827 | 365 ft | 24 kts | 1° |
| 2026-05-03 22:28 | 50.03067 | 8.52829 | 371 ft | 22 kts | 359° |
| 2026-05-03 22:29 | 50.03213 | 8.52824 | 377 ft | 20 kts | 360° |
| 2026-05-03 22:29 | 50.03351 | 8.52821 | 378 ft | 19 kts | 359° |
| 2026-05-03 22:29 | 50.03433 | 8.52769 | 382 ft | 5 kts | 296° |
| 2026-05-03 22:29 | 50.03430 | 8.52722 | 383 ft | 5 kts | 255° |
| 2026-05-03 22:30 | 50.03411 | 8.52635 | 383 ft | 13 kts | 250° |
| 2026-05-03 22:30 | 50.03375 | 8.52596 | 381 ft | 0 kts | 181° |
| 2026-05-03 22:30 | 50.03317 | 8.52595 | 379 ft | 29 kts | 181° |
| 2026-05-03 22:30 | 50.02842 | 8.52600 | 371 ft | 106 kts | 179° |
| 2026-05-03 22:31 | 50.01869 | 8.52608 | 360 ft | 174 kts | 180° |
| 2026-05-03 22:31 | 50.00547 | 8.52624 | 1031 ft | 197 kts | 181° |
| 2026-05-03 22:31 | 49.99161 | 8.52631 | 2108 ft | 201 kts | 183° |
| 2026-05-03 22:31 | 49.97722 | 8.52770 | 2628 ft | 217 kts | 172° |
| 2026-05-03 22:32 | 49.96341 | 8.53868 | 3177 ft | 235 kts | 140° |
| 2026-05-03 22:32 | 49.95361 | 8.55961 | 3831 ft | 244 kts | 124° |
| 2026-05-03 22:32 | 49.94537 | 8.58295 | 4574 ft | 249 kts | 118° |
| 2026-05-03 22:32 | 49.94032 | 8.60891 | 5328 ft | 258 kts | 102° |
| 2026-05-03 22:33 | 49.93857 | 8.63747 | 5732 ft | 279 kts | 97° |
| 2026-05-03 22:33 | 49.93722 | 8.66812 | 6315 ft | 287 kts | 103° |
| 2026-05-03 22:33 | 49.93071 | 8.69682 | 7013 ft | 280 kts | 130° |
| 2026-05-03 22:33 | 49.91739 | 8.71795 | 7769 ft | 273 kts | 148° |
| 2026-05-03 22:34 | 49.90209 | 8.73543 | 8548 ft | 274 kts | 150° |
| 2026-05-03 22:34 | 49.88708 | 8.75425 | 9335 ft | 283 kts | 139° |
| 2026-05-03 22:34 | 49.87526 | 8.77941 | 10098 ft | 293 kts | 127° |
| 2026-05-03 22:34 | 49.86477 | 8.80748 | 10498 ft | 311 kts | 124° |
| 2026-05-03 22:35 | 49.85392 | 8.83770 | 10742 ft | 330 kts | 124° |
| 2026-05-03 22:35 | 49.84245 | 8.86974 | 10994 ft | 349 kts | 123° |
| 2026-05-03 22:35 | 49.83030 | 8.90347 | 11250 ft | 367 kts | 123° |
| 2026-05-03 22:35 | 49.81765 | 8.93848 | 11677 ft | 377 kts | 123° |
| 2026-05-03 22:36 | 49.80471 | 8.97426 | 12297 ft | 383 kts | 123° |
| 2026-05-03 22:36 | 49.79156 | 9.01048 | 12918 ft | 387 kts | 122° |
| 2026-05-03 22:36 | 49.77828 | 9.04700 | 13562 ft | 392 kts | 122° |
| 2026-05-03 22:36 | 49.76536 | 9.08448 | 14136 ft | 398 kts | 117° |
| 2026-05-03 22:37 | 49.75651 | 9.12490 | 14712 ft | 405 kts | 108° |
| 2026-05-03 22:37 | 49.74869 | 9.16685 | 15300 ft | 406 kts | 113° |
| 2026-05-03 22:37 | 49.73585 | 9.20545 | 15896 ft | 404 kts | 127° |
| 2026-05-03 22:37 | 49.71934 | 9.24062 | 16507 ft | 405 kts | 132° |
| 2026-05-03 22:38 | 49.70115 | 9.27402 | 17070 ft | 407 kts | 134° |
| 2026-05-03 22:38 | 49.68217 | 9.30660 | 17639 ft | 410 kts | 135° |
| 2026-05-03 22:38 | 49.66278 | 9.33924 | 18191 ft | 413 kts | 135° |
| 2026-05-03 22:38 | 49.64329 | 9.37217 | 18679 ft | 417 kts | 135° |
| 2026-05-03 22:39 | 49.62267 | 9.40363 | 19148 ft | 417 kts | 143° |
| 2026-05-03 22:39 | 49.59949 | 9.43030 | 19663 ft | 416 kts | 148° |
| 2026-05-03 22:39 | 49.57527 | 9.45486 | 20124 ft | 417 kts | 151° |
| 2026-05-03 22:39 | 49.55077 | 9.47800 | 20540 ft | 421 kts | 152° |
| 2026-05-03 22:40 | 49.52547 | 9.50098 | 20991 ft | 423 kts | 153° |
| 2026-05-03 22:40 | 49.49997 | 9.52380 | 21446 ft | 425 kts | 153° |
| 2026-05-03 22:40 | 49.47476 | 9.54632 | 21913 ft | 427 kts | 153° |
| 2026-05-03 22:40 | 49.44921 | 9.56924 | 22360 ft | 430 kts | 153° |
| 2026-05-03 22:41 | 49.42340 | 9.59249 | 22808 ft | 432 kts | 153° |
| 2026-05-03 22:41 | 49.39736 | 9.61602 | 23248 ft | 435 kts | 153° |
| 2026-05-03 22:41 | 49.37122 | 9.63970 | 23672 ft | 437 kts | 152° |
| 2026-05-03 22:41 | 49.34575 | 9.66568 | 24041 ft | 443 kts | 146° |
| 2026-05-03 22:42 | 49.32209 | 9.69650 | 24388 ft | 448 kts | 141° |
| 2026-05-03 22:42 | 49.29930 | 9.72911 | 24758 ft | 451 kts | 140° |
| 2026-05-03 22:42 | 49.27680 | 9.76287 | 25145 ft | 453 kts | 139° |
| 2026-05-03 22:42 | 49.25445 | 9.79715 | 25531 ft | 455 kts | 138° |
| 2026-05-03 22:43 | 49.23233 | 9.83130 | 25860 ft | 458 kts | 138° |
| 2026-05-03 22:43 | 49.20982 | 9.86598 | 26193 ft | 460 kts | 138° |
| 2026-05-03 22:43 | 49.18710 | 9.90080 | 26570 ft | 462 kts | 139° |
| 2026-05-03 22:43 | 49.16433 | 9.93551 | 26940 ft | 464 kts | 139° |
| 2026-05-03 22:44 | 49.14133 | 9.97042 | 27301 ft | 466 kts | 139° |
| 2026-05-03 22:44 | 49.11830 | 10.00525 | 27642 ft | 468 kts | 139° |
| 2026-05-03 22:44 | 49.09507 | 10.04028 | 28014 ft | 470 kts | 139° |
| 2026-05-03 22:44 | 49.07171 | 10.07547 | 28309 ft | 472 kts | 139° |
| 2026-05-03 22:45 | 49.04808 | 10.11032 | 28615 ft | 474 kts | 140° |
| 2026-05-03 22:45 | 49.02397 | 10.14490 | 28966 ft | 476 kts | 141° |
| 2026-05-03 22:45 | 48.99963 | 10.17928 | 29267 ft | 478 kts | 141° |
| 2026-05-03 22:45 | 48.97512 | 10.21370 | 29645 ft | 479 kts | 141° |
| 2026-05-03 22:46 | 48.95070 | 10.24799 | 30151 ft | 476 kts | 141° |
| 2026-05-03 22:46 | 48.92643 | 10.28211 | 30596 ft | 474 kts | 141° |
| 2026-05-03 22:46 | 48.90260 | 10.31565 | 31009 ft | 472 kts | 141° |
| 2026-05-03 22:46 | 48.87855 | 10.34951 | 31432 ft | 471 kts | 140° |
| 2026-05-03 22:47 | 48.85457 | 10.38326 | 31822 ft | 469 kts | 140° |
| 2026-05-03 22:47 | 48.83066 | 10.41704 | 32226 ft | 468 kts | 139° |
| 2026-05-03 22:47 | 48.80756 | 10.45177 | 32566 ft | 469 kts | 137° |
| 2026-05-03 22:47 | 48.78497 | 10.48753 | 32935 ft | 468 kts | 136° |
| 2026-05-03 22:48 | 48.76277 | 10.52351 | 33273 ft | 467 kts | 136° |
| 2026-05-03 22:48 | 48.74068 | 10.55951 | 33695 ft | 465 kts | 136° |
| 2026-05-03 22:48 | 48.71864 | 10.59529 | 34073 ft | 463 kts | 136° |
| 2026-05-03 22:48 | 48.70404 | 10.61887 | 34267 ft | 463 kts | 136° |
| 2026-05-03 22:49 | 48.68194 | 10.65432 | 34484 ft | 463 kts | 136° |
| 2026-05-03 22:49 | 48.65972 | 10.68977 | 34685 ft | 464 kts | 136° |
| 2026-05-03 22:49 | 48.63744 | 10.72518 | 34920 ft | 465 kts | 137° |
| 2026-05-03 22:49 | 48.61511 | 10.76058 | 35118 ft | 466 kts | 137° |
| 2026-05-03 22:50 | 48.59274 | 10.79598 | 35347 ft | 466 kts | 137° |
| 2026-05-03 22:50 | 48.57036 | 10.83156 | 35560 ft | 467 kts | 136° |
| 2026-05-03 22:50 | 48.54805 | 10.86718 | 35770 ft | 467 kts | 136° |
| 2026-05-03 22:50 | 48.52572 | 10.90289 | 35910 ft | 469 kts | 136° |
| 2026-05-03 22:51 | 48.50325 | 10.93880 | 36082 ft | 471 kts | 136° |
| 2026-05-03 22:51 | 48.48070 | 10.97462 | 36314 ft | 471 kts | 137° |
| 2026-05-03 22:51 | 48.45805 | 11.01019 | 36534 ft | 471 kts | 137° |
| 2026-05-03 22:51 | 48.43524 | 11.04576 | 36744 ft | 471 kts | 137° |
| 2026-05-03 22:52 | 48.41239 | 11.08128 | 36955 ft | 471 kts | 137° |
| 2026-05-03 22:52 | 48.36668 | 11.15216 | 37056 ft | 472 kts | 137° |
| 2026-05-03 22:53 | 48.32129 | 11.22247 | 37029 ft | 468 kts | 137° |
| 2026-05-03 22:53 | 48.27621 | 11.29332 | 37031 ft | 471 kts | 133° |
| 2026-05-03 22:54 | 48.23893 | 11.37488 | 37039 ft | 476 kts | 124° |
| 2026-05-03 22:54 | 48.20530 | 11.46058 | 37043 ft | 477 kts | 122° |
| 2026-05-03 22:55 | 48.17229 | 11.54690 | 37039 ft | 477 kts | 122° |
| 2026-05-03 22:55 | 48.13914 | 11.63295 | 37010 ft | 476 kts | 122° |
| 2026-05-03 22:56 | 48.10580 | 11.71867 | 37021 ft | 476 kts | 122° |
| 2026-05-03 22:56 | 48.07248 | 11.80384 | 37020 ft | 475 kts | 122° |
| 2026-05-03 22:57 | 48.03899 | 11.88915 | 37018 ft | 475 kts | 122° |
| 2026-05-03 22:57 | 48.00563 | 11.97387 | 37002 ft | 476 kts | 122° |
| 2026-05-03 22:58 | 47.97197 | 12.05909 | 37012 ft | 476 kts | 122° |
| 2026-05-03 22:58 | 47.93629 | 12.14211 | 37001 ft | 473 kts | 131° |
| 2026-05-03 22:59 | 47.88984 | 12.21088 | 37010 ft | 470 kts | 141° |
| 2026-05-03 22:59 | 47.84008 | 12.27403 | 36999 ft | 470 kts | 142° |
| 2026-05-03 23:00 | 47.78967 | 12.33614 | 37009 ft | 470 kts | 142° |
| 2026-05-03 23:00 | 47.73969 | 12.39788 | 37011 ft | 471 kts | 142° |
| 2026-05-03 23:01 | 47.68941 | 12.46024 | 37019 ft | 471 kts | 142° |
| 2026-05-03 23:01 | 47.63908 | 12.52267 | 37014 ft | 471 kts | 142° |
| 2026-05-03 23:02 | 47.58971 | 12.58662 | 37020 ft | 471 kts | 140° |
| 2026-05-03 23:02 | 47.54140 | 12.65231 | 37021 ft | 472 kts | 139° |
| 2026-05-03 23:03 | 47.49313 | 12.71800 | 37028 ft | 472 kts | 139° |
| 2026-05-03 23:03 | 47.44487 | 12.78306 | 37025 ft | 472 kts | 140° |
| 2026-05-03 23:04 | 47.39624 | 12.84822 | 37039 ft | 472 kts | 140° |
| 2026-05-03 23:04 | 47.34754 | 12.91325 | 37040 ft | 472 kts | 140° |
| 2026-05-03 23:05 | 47.29885 | 12.97809 | 37052 ft | 472 kts | 139° |
| 2026-05-03 23:05 | 47.25011 | 13.04286 | 37055 ft | 472 kts | 139° |
| 2026-05-03 23:06 | 47.20154 | 13.10724 | 37067 ft | 473 kts | 139° |
| 2026-05-03 23:06 | 47.15265 | 13.17188 | 37065 ft | 472 kts | 140° |
| 2026-05-03 23:07 | 47.10368 | 13.23646 | 37081 ft | 472 kts | 140° |
| 2026-05-03 23:07 | 47.05478 | 13.30077 | 37076 ft | 473 kts | 139° |
| 2026-05-03 23:08 | 47.00573 | 13.36512 | 37090 ft | 473 kts | 139° |
| 2026-05-03 23:08 | 46.95658 | 13.42942 | 37091 ft | 473 kts | 140° |
| 2026-05-03 23:09 | 46.90747 | 13.49353 | 37094 ft | 473 kts | 140° |
| 2026-05-03 23:09 | 46.85831 | 13.55753 | 37095 ft | 473 kts | 140° |
| 2026-05-03 23:10 | 46.80908 | 13.62145 | 37103 ft | 474 kts | 139° |
| 2026-05-03 23:10 | 46.75979 | 13.68528 | 37092 ft | 474 kts | 139° |
| 2026-05-03 23:11 | 46.71055 | 13.74889 | 37097 ft | 476 kts | 139° |
| 2026-05-03 23:11 | 46.66086 | 13.81294 | 37099 ft | 477 kts | 139° |
| 2026-05-03 23:12 | 46.61115 | 13.87682 | 37104 ft | 476 kts | 139° |
| 2026-05-03 23:12 | 46.56139 | 13.94061 | 37100 ft | 476 kts | 139° |
| 2026-05-03 23:13 | 46.51192 | 14.00388 | 37095 ft | 477 kts | 139° |
| 2026-05-03 23:13 | 46.46234 | 14.06825 | 37100 ft | 479 kts | 138° |
| 2026-05-03 23:14 | 46.41346 | 14.13391 | 37105 ft | 479 kts | 137° |
| 2026-05-03 23:14 | 46.36470 | 14.19961 | 37118 ft | 479 kts | 137° |
| 2026-05-03 23:15 | 46.31597 | 14.26486 | 37126 ft | 479 kts | 137° |
| 2026-05-03 23:15 | 46.26696 | 14.33014 | 37124 ft | 479 kts | 137° |
| 2026-05-03 23:16 | 46.21771 | 14.39553 | 37130 ft | 481 kts | 138° |
| 2026-05-03 23:16 | 46.16835 | 14.46089 | 37130 ft | 481 kts | 138° |
| 2026-05-03 23:17 | 46.11894 | 14.52616 | 37130 ft | 481 kts | 137° |
| 2026-05-03 23:17 | 46.06953 | 14.59128 | 37124 ft | 481 kts | 137° |
| 2026-05-03 23:18 | 46.02005 | 14.65632 | 37114 ft | 481 kts | 137° |
| 2026-05-03 23:18 | 45.97052 | 14.72126 | 37113 ft | 482 kts | 138° |
| 2026-05-03 23:19 | 45.92084 | 14.78623 | 37110 ft | 483 kts | 137° |
| 2026-05-03 23:19 | 45.87140 | 14.85073 | 37099 ft | 483 kts | 137° |
| 2026-05-03 23:20 | 45.82147 | 14.91571 | 37109 ft | 484 kts | 137° |
| 2026-05-03 23:20 | 45.77162 | 14.98041 | 37103 ft | 483 kts | 137° |
| 2026-05-03 23:21 | 45.72175 | 15.04498 | 37107 ft | 483 kts | 137° |
| 2026-05-03 23:21 | 45.67175 | 15.10956 | 37099 ft | 486 kts | 137° |
| 2026-05-03 23:22 | 45.59622 | 15.20680 | 37097 ft | 487 kts | 137° |
| 2026-05-03 23:22 | 45.54613 | 15.27109 | 37097 ft | 487 kts | 137° |
| 2026-05-03 23:23 | 45.49566 | 15.33568 | 37094 ft | 487 kts | 137° |
| 2026-05-03 23:23 | 45.44516 | 15.40017 | 37094 ft | 488 kts | 137° |
| 2026-05-03 23:24 | 45.39463 | 15.46453 | 37098 ft | 487 kts | 138° |
| 2026-05-03 23:24 | 45.34409 | 15.52874 | 37097 ft | 487 kts | 138° |
| 2026-05-03 23:25 | 45.29345 | 15.59293 | 37089 ft | 487 kts | 138° |
| 2026-05-03 23:25 | 45.24275 | 15.65702 | 37102 ft | 489 kts | 137° |
| 2026-05-03 23:26 | 45.19180 | 15.72127 | 37100 ft | 490 kts | 137° |
| 2026-05-03 23:26 | 45.14082 | 15.78540 | 37104 ft | 490 kts | 138° |
| 2026-05-03 23:27 | 45.08976 | 15.84947 | 37105 ft | 490 kts | 138° |
| 2026-05-03 23:27 | 45.03905 | 15.91294 | 37113 ft | 490 kts | 137° |
| 2026-05-03 23:28 | 44.98780 | 15.97693 | 37107 ft | 492 kts | 137° |
| 2026-05-03 23:28 | 44.93642 | 16.04093 | 37115 ft | 492 kts | 137° |
| 2026-05-03 23:29 | 44.88496 | 16.10487 | 37115 ft | 492 kts | 137° |
| 2026-05-03 23:29 | 44.83355 | 16.16858 | 37133 ft | 492 kts | 137° |
| 2026-05-03 23:30 | 44.78206 | 16.23223 | 37125 ft | 493 kts | 137° |
| 2026-05-03 23:30 | 44.73046 | 16.29587 | 37133 ft | 494 kts | 137° |
| 2026-05-03 23:31 | 44.67879 | 16.35942 | 37131 ft | 493 kts | 137° |
| 2026-05-03 23:31 | 44.62708 | 16.42289 | 37137 ft | 493 kts | 137° |
| 2026-05-03 23:32 | 44.57538 | 16.48616 | 37137 ft | 493 kts | 137° |
| 2026-05-03 23:32 | 44.52397 | 16.54895 | 37143 ft | 494 kts | 137° |
| 2026-05-03 23:33 | 44.47206 | 16.61219 | 37151 ft | 494 kts | 137° |
| 2026-05-03 23:33 | 44.42019 | 16.67522 | 37152 ft | 494 kts | 138° |
| 2026-05-03 23:34 | 44.36814 | 16.73831 | 37160 ft | 494 kts | 137° |
| 2026-05-03 23:34 | 44.31627 | 16.80102 | 37156 ft | 493 kts | 137° |
| 2026-05-03 23:35 | 44.26417 | 16.86260 | 37161 ft | 494 kts | 139° |
| 2026-05-03 23:35 | 44.21108 | 16.92371 | 37167 ft | 494 kts | 139° |
| 2026-05-03 23:36 | 44.15796 | 16.98461 | 37174 ft | 494 kts | 139° |
| 2026-05-03 23:36 | 44.10489 | 17.04550 | 37176 ft | 494 kts | 139° |
| 2026-05-03 23:37 | 44.05183 | 17.10633 | 37173 ft | 495 kts | 139° |
| 2026-05-03 23:37 | 43.99862 | 17.16722 | 37175 ft | 495 kts | 139° |
| 2026-05-03 23:38 | 43.94571 | 17.22762 | 37181 ft | 496 kts | 139° |
| 2026-05-03 23:38 | 43.89229 | 17.28843 | 37165 ft | 497 kts | 139° |
| 2026-05-03 23:39 | 43.83881 | 17.34917 | 37162 ft | 497 kts | 139° |
| 2026-05-03 23:39 | 43.79427 | 17.39964 | 37165 ft | 498 kts | 139° |
| 2026-05-03 23:40 | 43.74069 | 17.46023 | 37177 ft | 498 kts | 139° |
| 2026-05-03 23:40 | 43.68689 | 17.52093 | 37151 ft | 500 kts | 138° |
| 2026-05-03 23:41 | 43.63284 | 17.58176 | 37158 ft | 501 kts | 139° |
| 2026-05-03 23:41 | 43.57878 | 17.64247 | 37145 ft | 501 kts | 139° |
| 2026-05-03 23:42 | 43.52326 | 17.70080 | 37145 ft | 502 kts | 143° |
| 2026-05-03 23:42 | 43.46565 | 17.75532 | 37170 ft | 503 kts | 143° |
| 2026-05-03 23:43 | 43.40794 | 17.80923 | 37139 ft | 505 kts | 143° |
| 2026-05-03 23:43 | 43.34994 | 17.86391 | 37124 ft | 506 kts | 143° |
| 2026-05-03 23:44 | 43.29206 | 17.91876 | 37122 ft | 505 kts | 143° |
| 2026-05-03 23:44 | 43.23421 | 17.97356 | 37133 ft | 505 kts | 143° |
| 2026-05-03 23:45 | 43.17629 | 18.02829 | 37134 ft | 505 kts | 143° |
| 2026-05-03 23:45 | 43.11822 | 18.08303 | 37144 ft | 506 kts | 143° |
| 2026-05-03 23:46 | 43.06047 | 18.13731 | 37147 ft | 506 kts | 143° |
| 2026-05-03 23:46 | 43.00236 | 18.19180 | 37174 ft | 506 kts | 143° |
| 2026-05-03 23:47 | 42.94424 | 18.24617 | 37165 ft | 506 kts | 143° |
| 2026-05-03 23:47 | 42.88606 | 18.30048 | 37154 ft | 507 kts | 143° |
| 2026-05-03 23:48 | 42.82773 | 18.35480 | 37166 ft | 507 kts | 143° |
| 2026-05-03 23:48 | 42.76944 | 18.40896 | 37137 ft | 507 kts | 143° |
| 2026-05-03 23:49 | 42.71104 | 18.46309 | 37136 ft | 508 kts | 143° |
| 2026-05-03 23:49 | 42.65240 | 18.51733 | 37141 ft | 511 kts | 143° |
| 2026-05-03 23:50 | 42.59359 | 18.57159 | 37137 ft | 511 kts | 143° |
| 2026-05-03 23:50 | 42.53480 | 18.62570 | 37137 ft | 511 kts | 143° |
| 2026-05-03 23:51 | 42.47589 | 18.67981 | 37134 ft | 511 kts | 143° |
| 2026-05-03 23:51 | 42.41734 | 18.73346 | 37128 ft | 512 kts | 143° |
| 2026-05-03 23:52 | 42.35825 | 18.78748 | 37168 ft | 512 kts | 143° |
| 2026-05-03 23:52 | 42.29917 | 18.84135 | 37138 ft | 512 kts | 143° |
| 2026-05-03 23:53 | 42.23998 | 18.89523 | 37143 ft | 512 kts | 143° |
| 2026-05-03 23:53 | 42.18079 | 18.94896 | 37136 ft | 513 kts | 143° |
| 2026-05-03 23:54 | 42.12152 | 19.00265 | 37135 ft | 513 kts | 143° |
| 2026-05-03 23:54 | 42.06221 | 19.05624 | 37135 ft | 513 kts | 143° |
| 2026-05-03 23:55 | 42.00275 | 19.10985 | 37133 ft | 514 kts | 144° |
| 2026-05-03 23:55 | 41.94320 | 19.16342 | 37132 ft | 515 kts | 143° |
| 2026-05-03 23:56 | 41.88400 | 19.21655 | 37132 ft | 515 kts | 144° |
| 2026-05-03 23:56 | 41.82445 | 19.26987 | 37128 ft | 515 kts | 144° |
| 2026-05-03 23:57 | 41.76463 | 19.32273 | 37124 ft | 515 kts | 146° |
| 2026-05-03 23:57 | 41.70280 | 19.37164 | 37127 ft | 517 kts | 148° |
| 2026-05-03 23:58 | 41.64010 | 19.41910 | 37120 ft | 517 kts | 148° |
| 2026-05-03 23:58 | 41.57758 | 19.46663 | 37148 ft | 517 kts | 148° |
| 2026-05-03 23:59 | 41.51511 | 19.51449 | 37119 ft | 518 kts | 148° |
| 2026-05-03 23:59 | 41.45262 | 19.56244 | 37116 ft | 519 kts | 148° |
| 2026-05-04 00:00 | 41.39004 | 19.61037 | 37115 ft | 519 kts | 148° |
| 2026-05-04 00:00 | 41.32739 | 19.65823 | 37113 ft | 519 kts | 148° |
| 2026-05-04 00:01 | 41.26512 | 19.70568 | 37124 ft | 519 kts | 148° |
| 2026-05-04 00:01 | 41.20237 | 19.75338 | 37123 ft | 519 kts | 148° |
| 2026-05-04 00:02 | 41.13960 | 19.80099 | 37157 ft | 519 kts | 148° |
| 2026-05-04 00:02 | 41.07673 | 19.84857 | 37122 ft | 519 kts | 148° |
| 2026-05-04 00:03 | 41.01386 | 19.89605 | 37118 ft | 520 kts | 148° |
| 2026-05-04 00:03 | 40.95097 | 19.94344 | 37127 ft | 520 kts | 148° |
| 2026-05-04 00:04 | 40.88843 | 19.99046 | 37125 ft | 520 kts | 148° |
| 2026-05-04 00:04 | 40.82553 | 20.03765 | 37121 ft | 520 kts | 149° |
| 2026-05-04 00:05 | 40.76254 | 20.08480 | 37130 ft | 521 kts | 149° |
| 2026-05-04 00:05 | 40.69939 | 20.13197 | 37129 ft | 521 kts | 149° |
| 2026-05-04 00:06 | 40.63631 | 20.17898 | 37138 ft | 520 kts | 149° |
| 2026-05-04 00:06 | 40.57329 | 20.22585 | 37149 ft | 520 kts | 149° |
| 2026-05-04 00:07 | 40.51059 | 20.27238 | 37152 ft | 521 kts | 149° |
| 2026-05-04 00:07 | 40.44720 | 20.31930 | 37154 ft | 521 kts | 149° |
| 2026-05-04 00:08 | 40.38394 | 20.36603 | 37162 ft | 521 kts | 149° |
| 2026-05-04 00:08 | 40.32104 | 20.41241 | 37160 ft | 522 kts | 149° |
| 2026-05-04 00:09 | 40.25766 | 20.45902 | 37160 ft | 522 kts | 149° |
| 2026-05-04 00:09 | 40.19421 | 20.50560 | 37165 ft | 523 kts | 149° |
| 2026-05-04 00:10 | 40.13082 | 20.55202 | 37158 ft | 522 kts | 149° |
| 2026-05-04 00:10 | 40.06729 | 20.59813 | 37159 ft | 523 kts | 152° |
| 2026-05-04 00:11 | 40.00189 | 20.63971 | 37166 ft | 523 kts | 155° |
| 2026-05-04 00:11 | 39.93564 | 20.67914 | 37168 ft | 523 kts | 155° |
| 2026-05-04 00:12 | 39.86944 | 20.71868 | 37161 ft | 523 kts | 155° |
| 2026-05-04 00:12 | 39.80328 | 20.75865 | 37178 ft | 525 kts | 155° |
| 2026-05-04 00:13 | 39.73702 | 20.79881 | 37184 ft | 526 kts | 155° |
| 2026-05-04 00:13 | 39.67113 | 20.83996 | 37185 ft | 524 kts | 152° |
| 2026-05-04 00:14 | 39.60675 | 20.88400 | 37184 ft | 524 kts | 151° |
| 2026-05-04 00:14 | 39.54243 | 20.92869 | 37180 ft | 525 kts | 151° |
| 2026-05-04 00:15 | 39.47818 | 20.97287 | 37179 ft | 525 kts | 152° |
| 2026-05-04 00:15 | 39.41352 | 21.01692 | 37182 ft | 525 kts | 152° |
| 2026-05-04 00:16 | 39.34878 | 21.06084 | 37188 ft | 527 kts | 152° |
| 2026-05-04 00:16 | 39.28369 | 21.10492 | 37185 ft | 529 kts | 152° |
| 2026-05-04 00:17 | 39.21839 | 21.14904 | 37223 ft | 529 kts | 152° |
| 2026-05-04 00:17 | 39.15323 | 21.19300 | 37193 ft | 527 kts | 152° |
| 2026-05-04 00:18 | 39.08823 | 21.23676 | 37199 ft | 528 kts | 153° |
| 2026-05-04 00:18 | 39.02309 | 21.28052 | 37208 ft | 528 kts | 153° |
| 2026-05-04 00:19 | 38.95785 | 21.32424 | 37197 ft | 528 kts | 153° |
| 2026-05-04 00:19 | 38.89265 | 21.36785 | 37188 ft | 528 kts | 153° |
| 2026-05-04 00:20 | 38.82729 | 21.41148 | 37202 ft | 530 kts | 153° |
| 2026-05-04 00:20 | 38.76212 | 21.45490 | 37205 ft | 531 kts | 153° |
| 2026-05-04 00:21 | 38.69661 | 21.49845 | 37197 ft | 531 kts | 153° |
| 2026-05-04 00:21 | 38.63103 | 21.54196 | 37201 ft | 531 kts | 153° |
| 2026-05-04 00:22 | 38.56537 | 21.58544 | 37198 ft | 531 kts | 153° |
| 2026-05-04 00:22 | 38.49977 | 21.62880 | 37196 ft | 531 kts | 153° |
| 2026-05-04 00:23 | 38.43418 | 21.67206 | 37196 ft | 531 kts | 153° |
| 2026-05-04 00:23 | 38.36840 | 21.71535 | 37189 ft | 532 kts | 153° |
| 2026-05-04 00:24 | 38.30251 | 21.75863 | 37190 ft | 533 kts | 153° |
| 2026-05-04 00:24 | 38.23647 | 21.80191 | 37216 ft | 534 kts | 153° |
| 2026-05-04 00:25 | 38.17043 | 21.84511 | 37197 ft | 533 kts | 153° |
| 2026-05-04 00:25 | 38.10497 | 21.88784 | 37200 ft | 533 kts | 153° |
| 2026-05-04 00:26 | 38.03898 | 21.93083 | 37196 ft | 533 kts | 153° |
| 2026-05-04 00:26 | 37.97280 | 21.97385 | 37203 ft | 533 kts | 153° |
| 2026-05-04 00:27 | 37.91786 | 22.00950 | 37209 ft | 533 kts | 153° |
| 2026-05-04 00:27 | 37.85177 | 22.05231 | 37213 ft | 534 kts | 153° |
| 2026-05-04 00:28 | 37.78557 | 22.09511 | 37221 ft | 534 kts | 154° |
| 2026-05-04 00:28 | 37.71941 | 22.13778 | 37239 ft | 534 kts | 154° |
| 2026-05-04 00:29 | 37.65328 | 22.18035 | 37223 ft | 533 kts | 154° |
| 2026-05-04 00:29 | 37.58706 | 22.22290 | 37225 ft | 534 kts | 154° |
| 2026-05-04 00:30 | 37.52081 | 22.26538 | 37224 ft | 535 kts | 154° |
| 2026-05-04 00:30 | 37.45444 | 22.30785 | 37223 ft | 535 kts | 154° |
| 2026-05-04 00:31 | 37.38807 | 22.35022 | 37201 ft | 534 kts | 154° |
| 2026-05-04 00:31 | 37.32158 | 22.39244 | 37216 ft | 535 kts | 154° |
| 2026-05-04 00:32 | 37.25553 | 22.43426 | 37210 ft | 535 kts | 154° |
| 2026-05-04 00:32 | 37.18899 | 22.47632 | 37212 ft | 535 kts | 154° |
| 2026-05-04 00:33 | 37.08927 | 22.53922 | 37193 ft | 535 kts | 155° |
| 2026-05-04 00:34 | 37.02277 | 22.58106 | 37194 ft | 535 kts | 155° |
| 2026-05-04 00:34 | 36.95622 | 22.62284 | 37184 ft | 535 kts | 155° |
| 2026-05-04 00:35 | 36.88963 | 22.66458 | 37183 ft | 535 kts | 155° |
| 2026-05-04 00:35 | 36.82309 | 22.70619 | 37175 ft | 535 kts | 155° |
| 2026-05-04 00:36 | 36.75707 | 22.74740 | 37166 ft | 535 kts | 155° |
| 2026-05-04 00:36 | 36.69035 | 22.78898 | 37195 ft | 535 kts | 155° |
| 2026-05-04 00:37 | 36.62378 | 22.83038 | 37142 ft | 534 kts | 156° |
| 2026-05-04 00:37 | 36.55716 | 22.87172 | 37162 ft | 535 kts | 156° |
| 2026-05-04 00:38 | 36.49033 | 22.91311 | 37159 ft | 535 kts | 156° |
| 2026-05-04 00:38 | 36.42368 | 22.95431 | 37161 ft | 535 kts | 156° |
| 2026-05-04 00:39 | 36.35691 | 22.99551 | 37147 ft | 535 kts | 156° |
| 2026-05-04 00:39 | 36.29050 | 23.03641 | 37157 ft | 536 kts | 156° |
| 2026-05-04 00:40 | 36.22363 | 23.07751 | 37157 ft | 537 kts | 156° |
| 2026-05-04 00:40 | 36.15656 | 23.11866 | 37162 ft | 537 kts | 156° |
| 2026-05-04 00:41 | 36.08969 | 23.15961 | 37158 ft | 535 kts | 156° |
| 2026-05-04 00:41 | 36.02298 | 23.20040 | 37157 ft | 535 kts | 156° |
| 2026-05-04 00:42 | 35.95624 | 23.24112 | 37154 ft | 535 kts | 157° |
| 2026-05-04 00:42 | 35.88990 | 23.28153 | 37153 ft | 535 kts | 157° |
| 2026-05-04 00:43 | 35.82315 | 23.32210 | 37148 ft | 535 kts | 157° |
| 2026-05-04 00:43 | 35.75622 | 23.36271 | 37154 ft | 537 kts | 157° |
| 2026-05-04 00:44 | 35.68924 | 23.40327 | 37151 ft | 537 kts | 157° |
| 2026-05-04 00:44 | 35.62222 | 23.44379 | 37154 ft | 536 kts | 157° |
| 2026-05-04 00:45 | 35.55530 | 23.48418 | 37148 ft | 534 kts | 158° |
| 2026-05-04 00:45 | 35.48849 | 23.52441 | 37143 ft | 535 kts | 158° |
| 2026-05-04 00:46 | 35.42161 | 23.56460 | 37143 ft | 535 kts | 158° |
| 2026-05-04 00:46 | 35.35515 | 23.60447 | 37140 ft | 535 kts | 158° |
| 2026-05-04 00:47 | 35.28827 | 23.64455 | 37141 ft | 536 kts | 158° |
| 2026-05-04 00:47 | 35.22105 | 23.68483 | 37140 ft | 539 kts | 157° |
| 2026-05-04 00:48 | 35.15420 | 23.72682 | 37132 ft | 540 kts | 156° |
| 2026-05-04 00:48 | 35.08765 | 23.76947 | 37126 ft | 539 kts | 156° |
| 2026-05-04 00:49 | 35.02118 | 23.81190 | 37114 ft | 538 kts | 156° |
| 2026-05-04 00:49 | 34.95470 | 23.85405 | 37122 ft | 539 kts | 156° |
| 2026-05-04 00:50 | 34.88864 | 23.89578 | 37123 ft | 539 kts | 156° |
| 2026-05-04 00:50 | 34.82203 | 23.93777 | 37121 ft | 539 kts | 156° |
| 2026-05-04 00:51 | 34.75546 | 23.97966 | 37102 ft | 538 kts | 157° |
| 2026-05-04 00:51 | 34.68898 | 24.02145 | 37114 ft | 537 kts | 157° |
| 2026-05-04 00:52 | 34.62261 | 24.06308 | 37117 ft | 536 kts | 157° |
| 2026-05-04 00:52 | 34.55623 | 24.10463 | 37120 ft | 536 kts | 157° |
| 2026-05-04 00:53 | 34.49027 | 24.14585 | 37113 ft | 536 kts | 158° |
| 2026-05-04 00:53 | 34.42396 | 24.18722 | 37114 ft | 535 kts | 158° |
| 2026-05-04 00:54 | 34.35790 | 24.22835 | 37114 ft | 534 kts | 158° |
| 2026-05-04 00:54 | 34.29168 | 24.26950 | 37116 ft | 534 kts | 158° |
| 2026-05-04 00:55 | 34.22549 | 24.31058 | 37077 ft | 534 kts | 158° |
| 2026-05-04 00:55 | 34.15918 | 24.35166 | 37119 ft | 535 kts | 158° |
| 2026-05-04 00:56 | 34.09287 | 24.39264 | 37134 ft | 536 kts | 159° |
| 2026-05-04 00:56 | 34.02708 | 24.43337 | 37115 ft | 535 kts | 156° |
| 2026-05-04 00:57 | 33.96633 | 24.48629 | 37115 ft | 542 kts | 144° |
| 2026-05-04 00:57 | 33.90930 | 24.54622 | 37116 ft | 546 kts | 142° |
| 2026-05-04 00:58 | 33.85288 | 24.60751 | 37116 ft | 547 kts | 141° |
| 2026-05-04 00:58 | 33.79631 | 24.66876 | 37110 ft | 547 kts | 142° |
| 2026-05-04 00:59 | 33.73952 | 24.72974 | 37111 ft | 547 kts | 142° |
| 2026-05-04 00:59 | 33.68268 | 24.79048 | 37108 ft | 547 kts | 142° |
| 2026-05-04 01:00 | 33.62575 | 24.85116 | 37092 ft | 547 kts | 142° |
| 2026-05-04 01:00 | 33.56869 | 24.91189 | 37105 ft | 549 kts | 142° |
| 2026-05-04 01:01 | 33.51186 | 24.97229 | 37101 ft | 548 kts | 142° |
| 2026-05-04 01:01 | 33.45474 | 25.03288 | 37104 ft | 548 kts | 142° |
| 2026-05-04 01:02 | 33.39762 | 25.09336 | 37105 ft | 547 kts | 142° |
| 2026-05-04 01:02 | 33.34088 | 25.15333 | 37104 ft | 547 kts | 142° |
| 2026-05-04 01:03 | 33.28383 | 25.21351 | 37100 ft | 547 kts | 142° |
| 2026-05-04 01:03 | 33.22665 | 25.27372 | 37117 ft | 547 kts | 143° |
| 2026-05-04 01:04 | 33.16955 | 25.33373 | 37118 ft | 547 kts | 143° |
| 2026-05-04 01:04 | 33.11249 | 25.39361 | 37099 ft | 546 kts | 143° |
| 2026-05-04 01:05 | 33.05537 | 25.45344 | 37097 ft | 545 kts | 143° |
| 2026-05-04 01:05 | 32.99834 | 25.51306 | 37096 ft | 546 kts | 143° |
| 2026-05-04 01:06 | 32.94111 | 25.57277 | 37091 ft | 547 kts | 143° |
| 2026-05-04 01:06 | 32.88375 | 25.63252 | 37099 ft | 548 kts | 143° |
| 2026-05-04 01:07 | 32.82681 | 25.69174 | 37096 ft | 547 kts | 143° |
| 2026-05-04 01:07 | 32.76958 | 25.75116 | 37094 ft | 546 kts | 143° |
| 2026-05-04 01:08 | 32.71228 | 25.81052 | 37093 ft | 546 kts | 143° |
| 2026-05-04 01:08 | 32.65500 | 25.86978 | 37094 ft | 545 kts | 144° |
| 2026-05-04 01:09 | 32.59792 | 25.92872 | 37091 ft | 544 kts | 144° |
| 2026-05-04 01:09 | 32.54081 | 25.98759 | 37090 ft | 542 kts | 144° |
| 2026-05-04 01:10 | 32.48400 | 26.04605 | 37091 ft | 540 kts | 144° |
| 2026-05-04 01:10 | 32.42726 | 26.10432 | 37092 ft | 540 kts | 144° |
| 2026-05-04 01:11 | 32.37076 | 26.16223 | 37085 ft | 540 kts | 145° |
| 2026-05-04 01:11 | 32.31402 | 26.22032 | 37092 ft | 539 kts | 145° |
| 2026-05-04 01:12 | 32.25693 | 26.27867 | 37087 ft | 539 kts | 145° |
| 2026-05-04 01:12 | 32.20053 | 26.33620 | 37088 ft | 538 kts | 145° |
| 2026-05-04 01:13 | 32.14370 | 26.39405 | 37085 ft | 538 kts | 145° |
| 2026-05-04 01:13 | 32.08697 | 26.45172 | 37089 ft | 538 kts | 145° |
| 2026-05-04 01:14 | 32.03028 | 26.50925 | 37092 ft | 538 kts | 146° |
| 2026-05-04 01:14 | 31.97382 | 26.56645 | 37092 ft | 538 kts | 146° |
| 2026-05-04 01:15 | 31.91712 | 26.62382 | 37091 ft | 536 kts | 146° |
| 2026-05-04 01:15 | 31.86052 | 26.68098 | 37095 ft | 536 kts | 146° |
| 2026-05-04 01:16 | 31.80398 | 26.73796 | 37095 ft | 536 kts | 146° |
| 2026-05-04 01:16 | 31.75689 | 26.78535 | 37095 ft | 536 kts | 146° |
| 2026-05-04 01:17 | 31.70023 | 26.84230 | 37100 ft | 535 kts | 146° |
| 2026-05-04 01:17 | 31.64355 | 26.89916 | 37101 ft | 535 kts | 147° |
| 2026-05-04 01:18 | 31.58694 | 26.95587 | 37104 ft | 535 kts | 147° |
| 2026-05-04 01:18 | 31.53030 | 27.01250 | 37104 ft | 535 kts | 147° |
| 2026-05-04 01:19 | 31.47360 | 27.06910 | 37109 ft | 535 kts | 147° |
| 2026-05-04 01:19 | 31.41689 | 27.12562 | 37083 ft | 535 kts | 147° |
| 2026-05-04 01:20 | 31.36007 | 27.18214 | 37119 ft | 537 kts | 147° |
| 2026-05-04 01:20 | 31.30794 | 27.24486 | 37100 ft | 548 kts | 132° |
| 2026-05-04 01:21 | 31.26316 | 27.31813 | 37100 ft | 551 kts | 129° |
| 2026-05-04 01:21 | 31.22039 | 27.39252 | 37109 ft | 552 kts | 128° |
| 2026-05-04 01:22 | 31.17769 | 27.46704 | 37114 ft | 552 kts | 128° |
| 2026-05-04 01:22 | 31.13500 | 27.54080 | 37109 ft | 551 kts | 129° |
| 2026-05-04 01:23 | 31.09152 | 27.61433 | 37105 ft | 549 kts | 130° |
| 2026-05-04 01:23 | 31.04765 | 27.68758 | 37094 ft | 549 kts | 130° |
| 2026-05-04 01:24 | 31.00387 | 27.76060 | 37111 ft | 549 kts | 130° |
| 2026-05-04 01:24 | 30.96044 | 27.83305 | 37113 ft | 548 kts | 130° |
| 2026-05-04 01:25 | 30.91674 | 27.90586 | 37112 ft | 549 kts | 130° |
| 2026-05-04 01:25 | 30.87298 | 27.97865 | 37113 ft | 549 kts | 130° |
| 2026-05-04 01:26 | 30.82919 | 28.05136 | 37113 ft | 549 kts | 130° |
| 2026-05-04 01:26 | 30.78535 | 28.12404 | 37112 ft | 547 kts | 130° |
| 2026-05-04 01:27 | 30.74159 | 28.19643 | 37112 ft | 546 kts | 130° |
| 2026-05-04 01:27 | 30.69784 | 28.26866 | 37110 ft | 546 kts | 130° |
| 2026-05-04 01:28 | 30.65409 | 28.34076 | 37112 ft | 546 kts | 130° |
| 2026-05-04 01:28 | 30.61040 | 28.41267 | 37111 ft | 543 kts | 131° |
| 2026-05-04 01:29 | 30.56699 | 28.48399 | 37115 ft | 539 kts | 131° |
| 2026-05-04 01:29 | 30.52394 | 28.55454 | 37106 ft | 539 kts | 131° |
| 2026-05-04 01:30 | 30.48056 | 28.62548 | 37112 ft | 539 kts | 131° |
| 2026-05-04 01:30 | 30.43709 | 28.69649 | 37105 ft | 539 kts | 131° |
| 2026-05-04 01:31 | 30.39375 | 28.76716 | 37114 ft | 537 kts | 132° |
| 2026-05-04 01:31 | 30.35045 | 28.83767 | 37110 ft | 537 kts | 132° |
| 2026-05-04 01:32 | 30.30706 | 28.90814 | 37109 ft | 537 kts | 132° |
| 2026-05-04 01:32 | 30.26370 | 28.97848 | 37105 ft | 537 kts | 132° |
| 2026-05-04 01:33 | 30.22036 | 29.04868 | 37088 ft | 535 kts | 133° |
| 2026-05-04 01:33 | 30.17706 | 29.11872 | 37107 ft | 535 kts | 133° |
| 2026-05-04 01:34 | 30.13402 | 29.18843 | 37110 ft | 536 kts | 133° |
| 2026-05-04 01:34 | 30.09115 | 29.25880 | 37097 ft | 536 kts | 132° |
| 2026-05-04 01:35 | 30.04853 | 29.32958 | 37108 ft | 535 kts | 132° |
| 2026-05-04 01:35 | 30.00604 | 29.40005 | 37104 ft | 535 kts | 132° |
| 2026-05-04 01:36 | 29.96335 | 29.47055 | 37106 ft | 535 kts | 132° |
| 2026-05-04 01:36 | 29.92063 | 29.54091 | 37088 ft | 537 kts | 133° |
| 2026-05-04 01:37 | 29.87772 | 29.61145 | 37102 ft | 537 kts | 133° |
| 2026-05-04 01:37 | 29.83505 | 29.68152 | 37104 ft | 537 kts | 133° |
| 2026-05-04 01:38 | 29.79206 | 29.75196 | 37108 ft | 537 kts | 133° |
| 2026-05-04 01:38 | 29.74909 | 29.82226 | 37105 ft | 537 kts | 133° |
| 2026-05-04 01:39 | 29.70608 | 29.89252 | 37113 ft | 536 kts | 133° |
| 2026-05-04 01:39 | 29.66308 | 29.96263 | 37114 ft | 536 kts | 133° |
| 2026-05-04 01:40 | 29.62002 | 30.03271 | 37119 ft | 536 kts | 133° |
| 2026-05-04 01:40 | 29.57698 | 30.10263 | 37101 ft | 536 kts | 133° |
| 2026-05-04 01:41 | 29.53418 | 30.17206 | 37112 ft | 536 kts | 134° |
| 2026-05-04 01:41 | 29.49101 | 30.24195 | 37112 ft | 535 kts | 134° |
| 2026-05-04 01:42 | 29.44785 | 30.31173 | 37113 ft | 535 kts | 134° |
| 2026-05-04 01:42 | 29.40447 | 30.38103 | 37051 ft | 531 kts | 138° |
| 2026-05-04 01:43 | 29.35562 | 30.44331 | 37110 ft | 523 kts | 142° |
| 2026-05-04 01:43 | 29.30552 | 30.50351 | 37111 ft | 521 kts | 143° |
| 2026-05-04 01:44 | 29.25515 | 30.56317 | 37113 ft | 521 kts | 143° |
| 2026-05-04 01:44 | 29.20511 | 30.62245 | 37115 ft | 521 kts | 143° |
| 2026-05-04 01:45 | 29.15482 | 30.68213 | 37115 ft | 521 kts | 143° |
| 2026-05-04 01:45 | 29.07933 | 30.77168 | 37113 ft | 521 kts | 143° |
| 2026-05-04 01:46 | 29.02898 | 30.83130 | 37102 ft | 521 kts | 143° |
| 2026-05-04 01:46 | 28.97853 | 30.89092 | 37116 ft | 521 kts | 143° |
| 2026-05-04 01:47 | 28.92844 | 30.95005 | 37116 ft | 521 kts | 143° |
| 2026-05-04 01:47 | 28.87804 | 31.00947 | 37111 ft | 519 kts | 143° |
| 2026-05-04 01:48 | 28.82779 | 31.06861 | 37113 ft | 518 kts | 143° |
| 2026-05-04 01:48 | 28.77753 | 31.12766 | 37112 ft | 518 kts | 143° |
| 2026-05-04 01:49 | 28.72725 | 31.18664 | 37113 ft | 518 kts | 143° |
| 2026-05-04 01:49 | 28.67767 | 31.24582 | 37078 ft | 520 kts | 141° |
| 2026-05-04 01:50 | 28.62910 | 31.30702 | 37115 ft | 520 kts | 141° |
| 2026-05-04 01:50 | 28.58087 | 31.36836 | 37108 ft | 519 kts | 141° |
| 2026-05-04 01:51 | 28.53258 | 31.42936 | 37108 ft | 519 kts | 141° |
| 2026-05-04 01:51 | 28.48412 | 31.49022 | 37111 ft | 519 kts | 141° |
| 2026-05-04 01:52 | 28.43597 | 31.55053 | 37101 ft | 518 kts | 141° |
| 2026-05-04 01:52 | 28.38753 | 31.61113 | 37104 ft | 517 kts | 141° |
| 2026-05-04 01:53 | 28.33914 | 31.67157 | 37106 ft | 517 kts | 141° |
| 2026-05-04 01:53 | 28.29068 | 31.73200 | 37111 ft | 517 kts | 141° |
| 2026-05-04 01:54 | 28.24226 | 31.79231 | 37106 ft | 517 kts | 141° |
| 2026-05-04 01:54 | 28.19380 | 31.85260 | 37100 ft | 517 kts | 141° |
| 2026-05-04 01:55 | 28.14563 | 31.91242 | 37098 ft | 516 kts | 142° |
| 2026-05-04 01:55 | 28.09717 | 31.97253 | 37097 ft | 516 kts | 142° |
| 2026-05-04 01:56 | 28.04887 | 32.03282 | 37093 ft | 520 kts | 138° |
| 2026-05-04 01:56 | 28.02762 | 32.06648 | 37098 ft | 531 kts | 129° |
| 2026-05-04 01:56 | 28.00862 | 32.10242 | 37089 ft | 533 kts | 128° |
| 2026-05-04 01:57 | 27.97254 | 32.17601 | 37094 ft | 536 kts | 126° |
| 2026-05-04 01:57 | 27.93725 | 32.25027 | 37088 ft | 536 kts | 126° |
| 2026-05-04 01:58 | 27.90178 | 32.32447 | 37034 ft | 536 kts | 126° |
| 2026-05-04 01:58 | 27.86606 | 32.39851 | 37081 ft | 537 kts | 127° |
| 2026-05-04 01:59 | 27.83017 | 32.47253 | 37075 ft | 537 kts | 127° |
| 2026-05-04 01:59 | 27.79422 | 32.54654 | 37070 ft | 537 kts | 127° |
| 2026-05-04 02:00 | 27.75828 | 32.62042 | 37035 ft | 537 kts | 127° |
| 2026-05-04 02:00 | 27.72248 | 32.69392 | 37064 ft | 537 kts | 127° |
| 2026-05-04 02:01 | 27.68651 | 32.76762 | 37056 ft | 536 kts | 127° |
| 2026-05-04 02:01 | 27.65046 | 32.84135 | 37052 ft | 536 kts | 127° |
| 2026-05-04 02:02 | 27.61441 | 32.91495 | 37050 ft | 535 kts | 127° |
| 2026-05-04 02:02 | 27.57839 | 32.98837 | 37040 ft | 536 kts | 127° |
| 2026-05-04 02:03 | 27.54227 | 33.06186 | 37034 ft | 536 kts | 127° |
| 2026-05-04 02:03 | 27.51217 | 33.12299 | 37039 ft | 536 kts | 127° |
| 2026-05-04 02:04 | 27.47598 | 33.19640 | 37029 ft | 535 kts | 128° |
| 2026-05-04 02:04 | 27.44002 | 33.26921 | 37025 ft | 536 kts | 128° |
| 2026-05-04 02:05 | 27.40376 | 33.34252 | 37025 ft | 535 kts | 128° |
| 2026-05-04 02:05 | 27.36749 | 33.41571 | 37017 ft | 536 kts | 128° |
| 2026-05-04 02:06 | 27.33113 | 33.48889 | 37008 ft | 536 kts | 128° |
| 2026-05-04 02:06 | 27.29470 | 33.56207 | 37009 ft | 536 kts | 128° |
| 2026-05-04 02:07 | 27.25820 | 33.63530 | 37010 ft | 536 kts | 128° |
| 2026-05-04 02:07 | 27.22164 | 33.70853 | 36997 ft | 536 kts | 128° |
| 2026-05-04 02:08 | 27.18523 | 33.78176 | 36992 ft | 539 kts | 125° |
| 2026-05-04 02:08 | 27.15518 | 33.85914 | 36993 ft | 546 kts | 120° |
| 2026-05-04 02:09 | 27.12680 | 33.93843 | 36991 ft | 547 kts | 119° |
| 2026-05-04 02:09 | 27.09879 | 34.01792 | 36978 ft | 546 kts | 120° |
| 2026-05-04 02:10 | 27.07072 | 34.09709 | 36977 ft | 545 kts | 120° |
| 2026-05-04 02:10 | 27.04254 | 34.17603 | 36978 ft | 545 kts | 120° |
| 2026-05-04 02:11 | 27.01425 | 34.25493 | 36961 ft | 545 kts | 120° |
| 2026-05-04 02:11 | 26.98597 | 34.33368 | 36958 ft | 544 kts | 120° |
| 2026-05-04 02:12 | 26.95765 | 34.41236 | 36957 ft | 544 kts | 120° |
| 2026-05-04 02:12 | 26.92930 | 34.49093 | 36944 ft | 543 kts | 120° |
| 2026-05-04 02:13 | 26.90092 | 34.56947 | 36947 ft | 543 kts | 120° |
| 2026-05-04 02:13 | 26.87272 | 34.64734 | 36946 ft | 543 kts | 120° |
| 2026-05-04 02:14 | 26.84427 | 34.72576 | 36946 ft | 543 kts | 120° |
| 2026-05-04 02:14 | 26.81579 | 34.80410 | 36943 ft | 543 kts | 120° |
| 2026-05-04 02:15 | 26.78729 | 34.88235 | 36938 ft | 542 kts | 120° |
| 2026-05-04 02:15 | 26.75875 | 34.96055 | 36935 ft | 542 kts | 120° |
| 2026-05-04 02:16 | 26.73015 | 35.03880 | 36936 ft | 542 kts | 120° |
| 2026-05-04 02:16 | 26.70166 | 35.11664 | 36936 ft | 540 kts | 120° |
| 2026-05-04 02:17 | 26.67312 | 35.19445 | 36930 ft | 540 kts | 120° |
| 2026-05-04 02:17 | 26.64476 | 35.27158 | 36920 ft | 540 kts | 120° |
| 2026-05-04 02:18 | 26.61613 | 35.34933 | 36931 ft | 539 kts | 120° |
| 2026-05-04 02:18 | 26.58753 | 35.42680 | 36923 ft | 539 kts | 121° |
| 2026-05-04 02:19 | 26.55880 | 35.50423 | 36899 ft | 539 kts | 121° |
| 2026-05-04 02:19 | 26.52956 | 35.58113 | 36912 ft | 537 kts | 121° |
| 2026-05-04 02:20 | 26.50017 | 35.65778 | 36909 ft | 537 kts | 121° |
| 2026-05-04 02:20 | 26.47076 | 35.73440 | 36908 ft | 537 kts | 121° |
| 2026-05-04 02:21 | 26.44138 | 35.81097 | 36901 ft | 535 kts | 121° |
| 2026-05-04 02:21 | 26.41213 | 35.88716 | 36906 ft | 533 kts | 122° |
| 2026-05-04 02:22 | 26.38290 | 35.96312 | 36900 ft | 533 kts | 122° |
| 2026-05-04 02:22 | 26.35378 | 36.03858 | 36900 ft | 533 kts | 122° |
| 2026-05-04 02:23 | 26.32443 | 36.11454 | 36898 ft | 533 kts | 122° |
| 2026-05-04 02:23 | 26.29505 | 36.19041 | 36893 ft | 533 kts | 122° |
| 2026-05-04 02:24 | 26.26560 | 36.26637 | 36869 ft | 533 kts | 122° |
| 2026-05-04 02:24 | 26.23621 | 36.34205 | 36886 ft | 532 kts | 122° |
| 2026-05-04 02:25 | 26.20680 | 36.41760 | 36881 ft | 531 kts | 122° |
| 2026-05-04 02:25 | 26.17639 | 36.49233 | 36884 ft | 525 kts | 127° |
| 2026-05-04 02:26 | 26.14242 | 36.56363 | 36884 ft | 523 kts | 127° |
| 2026-05-04 02:26 | 26.10747 | 36.63463 | 36884 ft | 522 kts | 128° |
| 2026-05-04 02:27 | 26.07236 | 36.70541 | 36888 ft | 523 kts | 128° |
| 2026-05-04 02:27 | 26.03725 | 36.77627 | 36892 ft | 522 kts | 128° |
| 2026-05-04 02:28 | 26.00223 | 36.84702 | 36892 ft | 521 kts | 128° |
| 2026-05-04 02:28 | 25.96747 | 36.91716 | 36891 ft | 521 kts | 128° |
| 2026-05-04 02:29 | 25.93253 | 36.98755 | 36894 ft | 521 kts | 128° |
| 2026-05-04 02:29 | 25.89748 | 37.05805 | 36896 ft | 521 kts | 128° |
| 2026-05-04 02:30 | 25.86240 | 37.12850 | 36894 ft | 521 kts | 128° |
| 2026-05-04 02:30 | 25.82727 | 37.19892 | 36895 ft | 521 kts | 128° |
| 2026-05-04 02:31 | 25.79234 | 37.26892 | 36894 ft | 521 kts | 127° |
| 2026-05-04 02:31 | 25.75729 | 37.33934 | 36908 ft | 521 kts | 127° |
| 2026-05-04 02:32 | 25.72227 | 37.40968 | 36912 ft | 521 kts | 127° |
| 2026-05-04 02:32 | 25.68718 | 37.48004 | 36912 ft | 521 kts | 127° |
| 2026-05-04 02:33 | 25.65202 | 37.55038 | 36933 ft | 522 kts | 127° |
| 2026-05-04 02:33 | 25.61678 | 37.62070 | 36928 ft | 521 kts | 127° |
| 2026-05-04 02:34 | 25.58153 | 37.69095 | 36930 ft | 521 kts | 127° |
| 2026-05-04 02:34 | 25.54656 | 37.76071 | 36928 ft | 521 kts | 127° |
| 2026-05-04 02:35 | 25.51129 | 37.83091 | 36921 ft | 521 kts | 127° |
| 2026-05-04 02:35 | 25.47596 | 37.90108 | 36923 ft | 521 kts | 127° |
| 2026-05-04 02:36 | 25.44056 | 37.97126 | 36918 ft | 521 kts | 127° |
| 2026-05-04 02:36 | 25.40511 | 38.04142 | 36915 ft | 523 kts | 127° |
| 2026-05-04 02:37 | 25.36979 | 38.11122 | 36912 ft | 523 kts | 127° |
| 2026-05-04 02:37 | 25.33422 | 38.18147 | 36921 ft | 523 kts | 127° |
| 2026-05-04 02:38 | 25.29857 | 38.25172 | 36922 ft | 524 kts | 127° |
| 2026-05-04 02:38 | 25.26281 | 38.32205 | 36925 ft | 525 kts | 127° |
| 2026-05-04 02:39 | 25.22701 | 38.39239 | 36932 ft | 525 kts | 127° |
| 2026-05-04 02:39 | 25.19117 | 38.46268 | 36930 ft | 525 kts | 127° |
| 2026-05-04 02:40 | 25.15533 | 38.53289 | 36935 ft | 525 kts | 127° |
| 2026-05-04 02:40 | 25.11943 | 38.60300 | 36936 ft | 525 kts | 127° |
| 2026-05-04 02:41 | 25.08346 | 38.67312 | 36941 ft | 525 kts | 127° |
| 2026-05-04 02:41 | 25.04736 | 38.74339 | 36935 ft | 527 kts | 127° |
| 2026-05-04 02:42 | 25.01123 | 38.81364 | 36945 ft | 527 kts | 127° |
| 2026-05-04 02:42 | 24.97526 | 38.88347 | 36953 ft | 527 kts | 127° |
| 2026-05-04 02:43 | 24.93910 | 38.95356 | 36955 ft | 525 kts | 127° |
| 2026-05-04 02:43 | 24.90304 | 39.02326 | 36958 ft | 522 kts | 127° |
| 2026-05-04 02:44 | 24.86701 | 39.09273 | 36964 ft | 522 kts | 128° |
| 2026-05-04 02:44 | 24.83095 | 39.16215 | 36966 ft | 521 kts | 127° |
| 2026-05-04 02:45 | 24.79521 | 39.23094 | 36976 ft | 520 kts | 127° |
| 2026-05-04 02:45 | 24.75929 | 39.29998 | 36977 ft | 520 kts | 127° |
| 2026-05-04 02:46 | 24.72330 | 39.36905 | 36970 ft | 520 kts | 127° |
| 2026-05-04 02:46 | 24.68725 | 39.43817 | 36985 ft | 521 kts | 127° |
| 2026-05-04 02:47 | 24.65112 | 39.50732 | 36988 ft | 521 kts | 127° |
| 2026-05-04 02:47 | 24.61499 | 39.57638 | 36978 ft | 521 kts | 127° |
| 2026-05-04 02:48 | 24.57884 | 39.64539 | 37022 ft | 520 kts | 127° |
| 2026-05-04 02:48 | 24.54956 | 39.71835 | 37022 ft | 534 kts | 109° |
| 2026-05-04 02:49 | 24.53740 | 39.79945 | 37022 ft | 541 kts | 101° |
| 2026-05-04 02:49 | 24.52955 | 39.88177 | 37014 ft | 542 kts | 99° |
| 2026-05-04 02:50 | 24.52228 | 39.96425 | 37009 ft | 542 kts | 99° |
| 2026-05-04 02:50 | 24.51466 | 40.04623 | 36985 ft | 542 kts | 100° |
| 2026-05-04 02:51 | 24.50669 | 40.12851 | 37000 ft | 541 kts | 100° |
| 2026-05-04 02:51 | 24.49861 | 40.21056 | 36997 ft | 540 kts | 100° |
| 2026-05-04 02:52 | 24.49185 | 40.27881 | 36993 ft | 540 kts | 100° |
| 2026-05-04 02:52 | 24.48371 | 40.36081 | 36992 ft | 540 kts | 100° |
| 2026-05-04 02:53 | 24.47554 | 40.44271 | 36994 ft | 539 kts | 100° |
| 2026-05-04 02:53 | 24.46733 | 40.52450 | 36998 ft | 539 kts | 100° |
| 2026-05-04 02:54 | 24.45909 | 40.60622 | 36991 ft | 538 kts | 100° |
| 2026-05-04 02:54 | 24.45081 | 40.68788 | 36999 ft | 538 kts | 100° |
| 2026-05-04 02:55 | 24.43828 | 40.81036 | 37005 ft | 539 kts | 100° |
| 2026-05-04 02:56 | 24.42991 | 40.89164 | 36994 ft | 540 kts | 100° |
| 2026-05-04 02:56 | 24.42145 | 40.97346 | 37000 ft | 539 kts | 100° |
| 2026-05-04 02:57 | 24.41297 | 41.05509 | 37010 ft | 538 kts | 100° |
| 2026-05-04 02:57 | 24.40446 | 41.13665 | 37003 ft | 538 kts | 100° |
| 2026-05-04 02:58 | 24.39590 | 41.21821 | 37010 ft | 537 kts | 100° |
| 2026-05-04 02:58 | 24.38730 | 41.29972 | 37013 ft | 537 kts | 100° |
| 2026-05-04 02:59 | 24.37867 | 41.38111 | 37015 ft | 537 kts | 100° |
| 2026-05-04 02:59 | 24.37001 | 41.46242 | 37018 ft | 536 kts | 100° |
| 2026-05-04 03:00 | 24.36137 | 41.54308 | 37022 ft | 536 kts | 101° |
| 2026-05-04 03:00 | 24.35261 | 41.62443 | 37024 ft | 536 kts | 100° |
| 2026-05-04 03:01 | 24.34382 | 41.70571 | 37022 ft | 536 kts | 101° |
| 2026-05-04 03:01 | 24.33500 | 41.78679 | 37015 ft | 536 kts | 100° |
| 2026-05-04 03:02 | 24.31989 | 41.86566 | 37023 ft | 530 kts | 109° |
| 2026-05-04 03:02 | 24.30011 | 41.94355 | 37020 ft | 530 kts | 111° |
| 2026-05-04 03:03 | 24.27943 | 42.02125 | 37015 ft | 530 kts | 111° |
| 2026-05-04 03:03 | 24.25874 | 42.09886 | 37021 ft | 530 kts | 111° |
| 2026-05-04 03:04 | 24.23816 | 42.17644 | 37020 ft | 530 kts | 111° |
| 2026-05-04 03:04 | 24.21761 | 42.25400 | 37022 ft | 530 kts | 110° |
| 2026-05-04 03:05 | 24.19716 | 42.33107 | 37027 ft | 530 kts | 110° |
| 2026-05-04 03:05 | 24.17655 | 42.40855 | 37011 ft | 530 kts | 110° |
| 2026-05-04 03:06 | 24.15586 | 42.48611 | 37029 ft | 530 kts | 110° |
| 2026-05-04 03:06 | 24.13518 | 42.56350 | 37031 ft | 529 kts | 110° |
| 2026-05-04 03:07 | 24.11445 | 42.64085 | 37029 ft | 529 kts | 110° |
| 2026-05-04 03:07 | 24.09373 | 42.71806 | 37037 ft | 528 kts | 110° |
| 2026-05-04 03:08 | 24.07298 | 42.79519 | 37036 ft | 528 kts | 110° |
| 2026-05-04 03:08 | 24.05231 | 42.87182 | 37040 ft | 528 kts | 110° |
| 2026-05-04 03:09 | 24.03145 | 42.94899 | 37038 ft | 528 kts | 110° |
| 2026-05-04 03:09 | 24.01058 | 43.02604 | 37027 ft | 528 kts | 110° |
| 2026-05-04 03:10 | 23.98973 | 43.10285 | 37042 ft | 526 kts | 110° |
| 2026-05-04 03:10 | 23.96887 | 43.17953 | 37043 ft | 525 kts | 110° |
| 2026-05-04 03:11 | 23.94800 | 43.25603 | 37040 ft | 525 kts | 110° |
| 2026-05-04 03:11 | 23.92715 | 43.33236 | 37050 ft | 523 kts | 110° |
| 2026-05-04 03:12 | 23.90629 | 43.40853 | 37046 ft | 523 kts | 110° |
| 2026-05-04 03:12 | 23.88553 | 43.48413 | 37046 ft | 522 kts | 110° |
| 2026-05-04 03:13 | 23.86467 | 43.56000 | 37038 ft | 521 kts | 110° |
| 2026-05-04 03:13 | 23.84377 | 43.63584 | 37031 ft | 521 kts | 110° |
| 2026-05-04 03:14 | 23.82283 | 43.71163 | 37031 ft | 520 kts | 110° |
| 2026-05-04 03:14 | 23.80191 | 43.78722 | 37026 ft | 520 kts | 110° |
| 2026-05-04 03:15 | 23.78118 | 43.86239 | 37021 ft | 521 kts | 108° |
| 2026-05-04 03:15 | 23.76993 | 43.94088 | 37021 ft | 525 kts | 98° |
| 2026-05-04 03:16 | 23.76344 | 44.02054 | 37011 ft | 527 kts | 97° |
| 2026-05-04 03:16 | 23.75784 | 44.10027 | 37013 ft | 527 kts | 96° |
| 2026-05-04 03:17 | 23.75211 | 44.18021 | 37015 ft | 528 kts | 97° |
| 2026-05-04 03:17 | 23.74619 | 44.25971 | 37010 ft | 528 kts | 97° |
| 2026-05-04 03:18 | 23.74011 | 44.33964 | 37006 ft | 528 kts | 97° |
| 2026-05-04 03:18 | 23.73398 | 44.41954 | 37004 ft | 528 kts | 97° |
| 2026-05-04 03:19 | 23.72781 | 44.49954 | 37007 ft | 528 kts | 97° |
| 2026-05-04 03:19 | 23.72161 | 44.57956 | 37010 ft | 528 kts | 97° |
| 2026-05-04 03:20 | 23.71537 | 44.65942 | 37007 ft | 528 kts | 97° |
| 2026-05-04 03:20 | 23.70911 | 44.73913 | 37010 ft | 527 kts | 97° |
| 2026-05-04 03:21 | 23.70281 | 44.81878 | 37016 ft | 527 kts | 97° |
| 2026-05-04 03:21 | 23.69646 | 44.89841 | 37012 ft | 527 kts | 97° |
| 2026-05-04 03:22 | 23.69007 | 44.97800 | 37015 ft | 527 kts | 97° |
| 2026-05-04 03:22 | 23.68363 | 45.05770 | 37005 ft | 527 kts | 97° |
| 2026-05-04 03:23 | 23.67716 | 45.13726 | 37003 ft | 525 kts | 97° |
| 2026-05-04 03:23 | 23.67067 | 45.21662 | 37007 ft | 525 kts | 97° |
| 2026-05-04 03:24 | 23.66418 | 45.29550 | 37002 ft | 526 kts | 97° |
| 2026-05-04 03:24 | 23.65760 | 45.37498 | 36999 ft | 526 kts | 97° |
| 2026-05-04 03:25 | 23.65096 | 45.45457 | 36997 ft | 527 kts | 97° |
| 2026-05-04 03:25 | 23.64429 | 45.53419 | 36996 ft | 528 kts | 97° |
| 2026-05-04 03:26 | 23.63757 | 45.61383 | 36991 ft | 528 kts | 97° |
| 2026-05-04 03:26 | 23.63079 | 45.69362 | 36991 ft | 528 kts | 97° |
| 2026-05-04 03:27 | 23.62397 | 45.77343 | 36985 ft | 528 kts | 97° |
| 2026-05-04 03:27 | 23.61711 | 45.85315 | 36980 ft | 528 kts | 97° |
| 2026-05-04 03:28 | 23.61023 | 45.93269 | 36980 ft | 527 kts | 97° |
| 2026-05-04 03:28 | 23.60329 | 46.01230 | 36977 ft | 527 kts | 97° |
| 2026-05-04 03:29 | 23.59633 | 46.09181 | 36983 ft | 526 kts | 97° |
| 2026-05-04 03:29 | 23.58937 | 46.17079 | 36987 ft | 527 kts | 97° |
| 2026-05-04 03:30 | 23.58233 | 46.25021 | 36983 ft | 526 kts | 97° |
| 2026-05-04 03:30 | 23.57526 | 46.32955 | 36990 ft | 526 kts | 97° |
| 2026-05-04 03:31 | 23.56814 | 46.40892 | 36991 ft | 526 kts | 97° |
| 2026-05-04 03:31 | 23.56097 | 46.48828 | 36993 ft | 526 kts | 98° |
| 2026-05-04 03:32 | 23.55377 | 46.56772 | 36990 ft | 526 kts | 97° |
| 2026-05-04 03:32 | 23.54655 | 46.64692 | 36995 ft | 525 kts | 97° |
| 2026-05-04 03:33 | 23.53929 | 46.72607 | 36985 ft | 524 kts | 97° |
| 2026-05-04 03:33 | 23.53205 | 46.80448 | 36990 ft | 524 kts | 98° |
| 2026-05-04 03:34 | 23.52471 | 46.88350 | 36967 ft | 524 kts | 98° |
| 2026-05-04 03:34 | 23.51734 | 46.96250 | 36980 ft | 524 kts | 98° |
| 2026-05-04 03:35 | 23.50992 | 47.04155 | 36972 ft | 524 kts | 98° |
| 2026-05-04 03:35 | 23.50247 | 47.12058 | 36959 ft | 524 kts | 98° |
| 2026-05-04 03:36 | 23.49499 | 47.19946 | 36961 ft | 523 kts | 98° |
| 2026-05-04 03:36 | 23.48753 | 47.27772 | 36964 ft | 522 kts | 98° |
| 2026-05-04 03:37 | 23.47999 | 47.35631 | 36956 ft | 522 kts | 98° |
| 2026-05-04 03:37 | 23.47241 | 47.43497 | 36959 ft | 522 kts | 98° |
| 2026-05-04 03:38 | 23.46479 | 47.51361 | 36953 ft | 521 kts | 98° |
| 2026-05-04 03:38 | 23.45718 | 47.59174 | 36940 ft | 521 kts | 98° |
| 2026-05-04 03:39 | 23.44950 | 47.67020 | 36945 ft | 521 kts | 98° |
| 2026-05-04 03:39 | 23.44178 | 47.74869 | 36934 ft | 520 kts | 98° |
| 2026-05-04 03:40 | 23.43404 | 47.82703 | 36923 ft | 520 kts | 98° |
| 2026-05-04 03:40 | 23.42624 | 47.90548 | 36918 ft | 520 kts | 98° |
| 2026-05-04 03:41 | 23.41847 | 47.98333 | 36915 ft | 520 kts | 98° |
| 2026-05-04 03:41 | 23.41061 | 48.06165 | 36913 ft | 521 kts | 98° |
| 2026-05-04 03:42 | 23.40269 | 48.14010 | 36906 ft | 521 kts | 98° |
| 2026-05-04 03:42 | 23.39473 | 48.21863 | 36910 ft | 521 kts | 98° |
| 2026-05-04 03:43 | 23.38803 | 48.28432 | 36903 ft | 521 kts | 98° |
| 2026-05-04 03:43 | 23.38070 | 48.36225 | 36900 ft | 521 kts | 95° |
| 2026-05-04 03:44 | 23.37711 | 48.44101 | 36902 ft | 521 kts | 93° |
| 2026-05-04 03:44 | 23.37460 | 48.51999 | 36902 ft | 522 kts | 93° |
| 2026-05-04 03:45 | 23.37179 | 48.59892 | 36884 ft | 522 kts | 93° |
| 2026-05-04 03:45 | 23.36862 | 48.67778 | 36892 ft | 521 kts | 94° |
| 2026-05-04 03:46 | 23.36530 | 48.75670 | 36882 ft | 521 kts | 94° |
| 2026-05-04 03:46 | 23.36195 | 48.83496 | 36881 ft | 521 kts | 94° |
| 2026-05-04 03:47 | 23.35856 | 48.91376 | 36881 ft | 521 kts | 94° |
| 2026-05-04 03:47 | 23.35514 | 48.99250 | 36879 ft | 520 kts | 94° |
| 2026-05-04 03:48 | 23.35031 | 49.07087 | 36884 ft | 519 kts | 99° |
| 2026-05-04 03:48 | 23.34024 | 49.14871 | 36880 ft | 518 kts | 100° |
| 2026-05-04 03:49 | 23.32911 | 49.22628 | 36874 ft | 518 kts | 100° |
| 2026-05-04 03:49 | 23.31779 | 49.30376 | 36872 ft | 518 kts | 100° |
| 2026-05-04 03:50 | 23.30657 | 49.38078 | 36867 ft | 518 kts | 100° |
| 2026-05-04 03:50 | 23.29532 | 49.45827 | 36861 ft | 518 kts | 100° |
| 2026-05-04 03:51 | 23.28406 | 49.53569 | 36871 ft | 517 kts | 100° |
| 2026-05-04 03:51 | 23.27280 | 49.61287 | 36868 ft | 516 kts | 100° |
| 2026-05-04 03:52 | 23.26150 | 49.69000 | 36872 ft | 516 kts | 100° |
| 2026-05-04 03:52 | 23.25016 | 49.76711 | 36873 ft | 516 kts | 100° |
| 2026-05-04 03:53 | 23.23878 | 49.84423 | 36871 ft | 516 kts | 100° |
| 2026-05-04 03:53 | 23.22745 | 49.92072 | 36868 ft | 516 kts | 100° |
| 2026-05-04 03:54 | 23.21601 | 49.99771 | 36860 ft | 515 kts | 100° |
| 2026-05-04 03:54 | 23.20456 | 50.07450 | 36870 ft | 514 kts | 100° |
| 2026-05-04 03:55 | 23.19310 | 50.15114 | 36868 ft | 513 kts | 100° |
| 2026-05-04 03:55 | 23.18160 | 50.22774 | 36868 ft | 513 kts | 100° |
| 2026-05-04 03:56 | 23.17008 | 50.30423 | 36867 ft | 512 kts | 100° |
| 2026-05-04 03:56 | 23.15851 | 50.38073 | 36867 ft | 512 kts | 100° |
| 2026-05-04 03:57 | 23.14690 | 50.45730 | 36867 ft | 512 kts | 101° |
| 2026-05-04 03:57 | 23.13528 | 50.53366 | 36865 ft | 512 kts | 101° |
| 2026-05-04 03:58 | 23.11787 | 50.64763 | 36864 ft | 511 kts | 100° |
| 2026-05-04 03:58 | 23.10618 | 50.72381 | 36863 ft | 511 kts | 100° |
| 2026-05-04 03:59 | 23.09447 | 50.79990 | 36860 ft | 511 kts | 101° |
| 2026-05-04 03:59 | 23.08272 | 50.87600 | 36858 ft | 511 kts | 101° |
| 2026-05-04 04:00 | 23.07091 | 50.95217 | 36864 ft | 512 kts | 101° |
| 2026-05-04 04:00 | 23.05910 | 51.02815 | 36864 ft | 512 kts | 101° |
| 2026-05-04 04:01 | 23.04720 | 51.10448 | 36851 ft | 512 kts | 101° |
| 2026-05-04 04:01 | 23.03528 | 51.18068 | 36857 ft | 510 kts | 101° |
| 2026-05-04 04:02 | 23.02336 | 51.25664 | 36859 ft | 510 kts | 101° |
| 2026-05-04 04:02 | 23.01142 | 51.33246 | 36868 ft | 510 kts | 101° |
| 2026-05-04 04:03 | 22.99951 | 51.40782 | 36860 ft | 510 kts | 101° |
| 2026-05-04 04:03 | 22.98747 | 51.48377 | 36855 ft | 511 kts | 101° |
| 2026-05-04 04:04 | 22.97539 | 51.55976 | 36858 ft | 511 kts | 101° |
| 2026-05-04 04:04 | 22.96330 | 51.63562 | 36856 ft | 511 kts | 101° |
| 2026-05-04 04:05 | 22.95114 | 51.71158 | 36856 ft | 511 kts | 101° |
| 2026-05-04 04:05 | 22.93893 | 51.78768 | 36856 ft | 511 kts | 101° |
| 2026-05-04 04:06 | 22.92669 | 51.86367 | 36859 ft | 511 kts | 101° |
| 2026-05-04 04:06 | 22.91443 | 51.93963 | 36859 ft | 511 kts | 101° |
| 2026-05-04 04:07 | 22.90213 | 52.01555 | 36858 ft | 511 kts | 101° |
| 2026-05-04 04:07 | 22.88987 | 52.09094 | 36860 ft | 511 kts | 101° |
| 2026-05-04 04:08 | 22.87751 | 52.16681 | 36860 ft | 511 kts | 101° |
| 2026-05-04 04:08 | 22.86510 | 52.24267 | 36856 ft | 511 kts | 101° |
| 2026-05-04 04:09 | 22.85266 | 52.31853 | 36857 ft | 510 kts | 101° |
| 2026-05-04 04:09 | 22.84022 | 52.39413 | 36855 ft | 509 kts | 101° |
| 2026-05-04 04:10 | 22.82785 | 52.46981 | 36857 ft | 510 kts | 98° |
| 2026-05-04 04:10 | 22.82292 | 52.54654 | 36854 ft | 510 kts | 92° |
| 2026-05-04 04:11 | 22.82066 | 52.62337 | 36855 ft | 510 kts | 91° |
| 2026-05-04 04:11 | 22.81892 | 52.69979 | 36851 ft | 510 kts | 91° |
| 2026-05-04 04:12 | 22.81705 | 52.77665 | 36851 ft | 510 kts | 92° |
| 2026-05-04 04:12 | 22.81503 | 52.85351 | 36852 ft | 510 kts | 92° |
| 2026-05-04 04:13 | 22.81293 | 52.93040 | 36851 ft | 510 kts | 92° |
| 2026-05-04 04:13 | 22.81078 | 53.00732 | 36841 ft | 510 kts | 92° |
| 2026-05-04 04:14 | 22.80860 | 53.08413 | 36848 ft | 509 kts | 92° |
| 2026-05-04 04:14 | 22.80640 | 53.16074 | 36843 ft | 509 kts | 92° |
| 2026-05-04 04:15 | 22.80415 | 53.23743 | 36850 ft | 509 kts | 92° |
| 2026-05-04 04:15 | 22.80188 | 53.31376 | 36848 ft | 509 kts | 92° |
| 2026-05-04 04:16 | 22.79957 | 53.39047 | 36844 ft | 510 kts | 92° |
| 2026-05-04 04:16 | 22.79721 | 53.46734 | 36841 ft | 510 kts | 92° |
| 2026-05-04 04:17 | 22.79481 | 53.54418 | 36844 ft | 510 kts | 92° |
| 2026-05-04 04:17 | 22.79238 | 53.62096 | 36844 ft | 510 kts | 92° |
| 2026-05-04 04:18 | 22.78991 | 53.69770 | 36844 ft | 509 kts | 92° |
| 2026-05-04 04:18 | 22.78741 | 53.77445 | 36846 ft | 510 kts | 92° |
| 2026-05-04 04:19 | 22.78487 | 53.85133 | 36843 ft | 511 kts | 92° |
| 2026-05-04 04:19 | 22.78228 | 53.92830 | 36840 ft | 511 kts | 92° |
| 2026-05-04 04:20 | 22.78380 | 54.00493 | 36843 ft | 509 kts | 80° |
| 2026-05-04 04:20 | 22.79683 | 54.08016 | 36844 ft | 509 kts | 77° |
| 2026-05-04 04:21 | 22.81202 | 54.15473 | 36842 ft | 510 kts | 76° |
| 2026-05-04 04:21 | 22.82765 | 54.22978 | 36843 ft | 510 kts | 76° |
| 2026-05-04 04:22 | 22.84305 | 54.30491 | 36842 ft | 510 kts | 77° |
| 2026-05-04 04:22 | 22.85826 | 54.38007 | 36842 ft | 510 kts | 77° |
| 2026-05-04 04:23 | 22.87331 | 54.45481 | 36842 ft | 510 kts | 77° |
| 2026-05-04 04:23 | 22.88830 | 54.52946 | 36842 ft | 510 kts | 77° |
| 2026-05-04 04:24 | 22.90340 | 54.60484 | 36841 ft | 511 kts | 77° |
| 2026-05-04 04:24 | 22.91846 | 54.68017 | 36840 ft | 511 kts | 77° |
| 2026-05-04 04:25 | 22.93348 | 54.75550 | 36843 ft | 511 kts | 77° |
| 2026-05-04 04:25 | 22.94838 | 54.83041 | 36841 ft | 511 kts | 77° |
| 2026-05-04 04:26 | 22.96333 | 54.90574 | 36839 ft | 512 kts | 77° |
| 2026-05-04 04:26 | 22.97829 | 54.98137 | 36847 ft | 512 kts | 77° |
| 2026-05-04 04:27 | 22.99321 | 55.05695 | 36846 ft | 512 kts | 77° |
| 2026-05-04 04:27 | 23.00916 | 55.13222 | 36849 ft | 511 kts | 70° |
| 2026-05-04 04:28 | 23.04044 | 55.20005 | 36853 ft | 504 kts | 50° |
| 2026-05-04 04:28 | 23.06371 | 55.22823 | 36854 ft | 499 kts | 39° |
| 2026-05-04 04:28 | 23.09111 | 55.25096 | 36854 ft | 493 kts | 28° |
| 2026-05-04 04:29 | 23.12157 | 55.26756 | 36857 ft | 488 kts | 17° |
| 2026-05-04 04:29 | 23.15368 | 55.27920 | 36862 ft | 486 kts | 13° |
| 2026-05-04 04:29 | 23.21875 | 55.29875 | 36855 ft | 485 kts | 10° |
| 2026-05-04 04:30 | 23.28418 | 55.31715 | 36859 ft | 485 kts | 10° |
| 2026-05-04 04:30 | 23.34896 | 55.33577 | 36858 ft | 485 kts | 11° |
| 2026-05-04 04:31 | 23.41421 | 55.35493 | 36858 ft | 485 kts | 11° |
| 2026-05-04 04:31 | 23.47946 | 55.37424 | 36870 ft | 486 kts | 11° |
| 2026-05-04 04:32 | 23.53373 | 55.39033 | 36867 ft | 486 kts | 11° |
| 2026-05-04 04:32 | 23.60975 | 55.41284 | 36862 ft | 486 kts | 11° |
| 2026-05-04 04:33 | 23.66401 | 55.42891 | 36866 ft | 486 kts | 11° |
| 2026-05-04 04:33 | 23.72931 | 55.44827 | 36874 ft | 486 kts | 11° |
| 2026-05-04 04:34 | 23.79461 | 55.46765 | 36495 ft | 484 kts | 11° |
| 2026-05-04 04:34 | 23.82690 | 55.47727 | 36033 ft | 481 kts | 10° |
| 2026-05-04 04:34 | 23.85922 | 55.48688 | 35387 ft | 482 kts | 10° |
| 2026-05-04 04:35 | 23.89163 | 55.49649 | 34695 ft | 485 kts | 10° |
| 2026-05-04 04:35 | 23.92430 | 55.50617 | 33987 ft | 487 kts | 10° |
| 2026-05-04 04:35 | 23.95717 | 55.51590 | 33098 ft | 491 kts | 10° |
| 2026-05-04 04:35 | 23.98985 | 55.52731 | 32260 ft | 499 kts | 18° |
| 2026-05-04 04:36 | 24.02023 | 55.54526 | 31364 ft | 509 kts | 30° |
| 2026-05-04 04:36 | 24.04857 | 55.56918 | 30453 ft | 516 kts | 35° |
| 2026-05-04 04:36 | 24.07606 | 55.59481 | 29570 ft | 518 kts | 37° |
| 2026-05-04 04:36 | 24.10261 | 55.62110 | 28955 ft | 508 kts | 38° |
| 2026-05-04 04:37 | 24.17684 | 55.69651 | 27199 ft | 474 kts | 39° |
| 2026-05-04 04:37 | 24.20106 | 55.72084 | 26650 ft | 469 kts | 39° |
| 2026-05-04 04:38 | 24.22510 | 55.74485 | 26071 ft | 465 kts | 39° |
| 2026-05-04 04:38 | 24.24895 | 55.76858 | 25489 ft | 460 kts | 39° |
| 2026-05-04 04:38 | 24.27256 | 55.79203 | 24920 ft | 456 kts | 39° |
| 2026-05-04 04:38 | 24.29572 | 55.81505 | 24352 ft | 452 kts | 39° |
| 2026-05-04 04:39 | 24.31891 | 55.83809 | 23785 ft | 448 kts | 39° |
| 2026-05-04 04:39 | 24.34190 | 55.86095 | 23164 ft | 444 kts | 39° |
| 2026-05-04 04:39 | 24.36467 | 55.88363 | 22559 ft | 438 kts | 39° |
| 2026-05-04 04:39 | 24.38708 | 55.90598 | 21996 ft | 432 kts | 39° |
| 2026-05-04 04:40 | 24.40916 | 55.92799 | 21437 ft | 426 kts | 39° |
| 2026-05-04 04:40 | 24.43100 | 55.94979 | 20895 ft | 421 kts | 39° |
| 2026-05-04 04:40 | 24.45254 | 55.97128 | 20354 ft | 416 kts | 39° |
| 2026-05-04 04:40 | 24.47360 | 55.99230 | 19830 ft | 411 kts | 39° |
| 2026-05-04 04:41 | 24.49455 | 56.01321 | 19290 ft | 407 kts | 39° |
| 2026-05-04 04:41 | 24.51540 | 56.03403 | 18773 ft | 403 kts | 39° |
| 2026-05-04 04:41 | 24.53610 | 56.05472 | 18245 ft | 400 kts | 39° |
| 2026-05-04 04:41 | 24.55657 | 56.07522 | 17688 ft | 396 kts | 39° |
| 2026-05-04 04:42 | 24.57679 | 56.09545 | 17152 ft | 390 kts | 38° |
| 2026-05-04 04:42 | 24.59856 | 56.11262 | 16640 ft | 381 kts | 26° |
| 2026-05-04 04:42 | 24.62272 | 56.12361 | 16112 ft | 372 kts | 14° |
| 2026-05-04 04:42 | 24.64762 | 56.13089 | 15621 ft | 367 kts | 10° |
| 2026-05-04 04:43 | 24.67253 | 56.13634 | 15128 ft | 363 kts | 8° |
| 2026-05-04 04:43 | 24.69724 | 56.14081 | 14653 ft | 359 kts | 7° |
| 2026-05-04 04:43 | 24.72143 | 56.14488 | 14322 ft | 351 kts | 6° |
| 2026-05-04 04:43 | 24.74565 | 56.14889 | 14049 ft | 339 kts | 6° |
| 2026-05-04 04:44 | 24.76765 | 56.15248 | 13974 ft | 309 kts | 4° |
| 2026-05-04 04:44 | 24.78823 | 56.15275 | 13843 ft | 285 kts | 352° |
| 2026-05-04 04:44 | 24.80711 | 56.14837 | 13710 ft | 273 kts | 341° |
| 2026-05-04 04:44 | 24.82463 | 56.14110 | 13571 ft | 265 kts | 336° |
| 2026-05-04 04:45 | 24.84140 | 56.13325 | 13425 ft | 258 kts | 335° |
| 2026-05-04 04:45 | 24.85758 | 56.12542 | 13321 ft | 251 kts | 335° |
| 2026-05-04 04:45 | 24.87339 | 56.11770 | 13209 ft | 247 kts | 335° |
| 2026-05-04 04:47 | 24.97305 | 56.06678 | 11922 ft | 265 kts | 321° |
| 2026-05-04 04:47 | 24.98643 | 56.05294 | 11807 ft | 264 kts | 312° |
| 2026-05-04 04:47 | 24.99880 | 56.03802 | 11682 ft | 264 kts | 311° |
| 2026-05-04 04:47 | 25.01101 | 56.02294 | 11569 ft | 263 kts | 310° |
| 2026-05-04 04:48 | 25.02320 | 56.00789 | 11405 ft | 262 kts | 310° |
| 2026-05-04 04:49 | 25.07167 | 55.94838 | 10917 ft | 260 kts | 310° |
| 2026-05-04 04:49 | 25.08377 | 55.93353 | 10771 ft | 260 kts | 310° |
| 2026-05-04 04:49 | 25.09582 | 55.91874 | 10632 ft | 259 kts | 310° |
| 2026-05-04 04:49 | 25.10785 | 55.90398 | 10509 ft | 258 kts | 310° |
| 2026-05-04 04:50 | 25.11983 | 55.88927 | 10377 ft | 258 kts | 309° |
| 2026-05-04 04:50 | 25.13182 | 55.87455 | 10265 ft | 257 kts | 309° |
| 2026-05-04 04:50 | 25.14381 | 55.85982 | 10131 ft | 258 kts | 309° |
| 2026-05-04 04:50 | 25.15539 | 55.84483 | 9994 ft | 257 kts | 304° |
| 2026-05-04 04:51 | 25.16533 | 55.82854 | 9868 ft | 256 kts | 300° |
| 2026-05-04 04:51 | 25.17471 | 55.81186 | 9739 ft | 255 kts | 299° |
| 2026-05-04 04:51 | 25.18397 | 55.79516 | 9619 ft | 254 kts | 299° |
| 2026-05-04 04:51 | 25.19143 | 55.77768 | 9469 ft | 251 kts | 285° |
| 2026-05-04 04:52 | 25.19556 | 55.75895 | 9365 ft | 251 kts | 281° |
| 2026-05-04 04:52 | 25.19884 | 55.74002 | 9227 ft | 251 kts | 279° |
| 2026-05-04 04:52 | 25.20197 | 55.72133 | 9102 ft | 251 kts | 279° |
| 2026-05-04 04:52 | 25.20515 | 55.70244 | 8978 ft | 250 kts | 279° |
| 2026-05-04 04:53 | 25.20837 | 55.68355 | 8850 ft | 250 kts | 279° |
| 2026-05-04 04:53 | 25.21161 | 55.66465 | 8732 ft | 250 kts | 280° |
| 2026-05-04 04:53 | 25.21485 | 55.64583 | 8605 ft | 250 kts | 280° |
| 2026-05-04 04:53 | 25.21810 | 55.62690 | 8474 ft | 250 kts | 280° |
| 2026-05-04 04:54 | 25.22134 | 55.60813 | 8347 ft | 249 kts | 280° |
| 2026-05-04 04:54 | 25.22457 | 55.58934 | 8223 ft | 249 kts | 280° |
| 2026-05-04 04:54 | 25.22781 | 55.57057 | 8091 ft | 249 kts | 280° |
| 2026-05-04 04:54 | 25.23062 | 55.55176 | 8004 ft | 248 kts | 275° |
| 2026-05-04 04:55 | 25.23171 | 55.53267 | 7814 ft | 248 kts | 272° |
| 2026-05-04 04:55 | 25.23221 | 55.51365 | 7622 ft | 247 kts | 271° |
| 2026-05-04 04:55 | 25.23263 | 55.49468 | 7457 ft | 246 kts | 271° |
| 2026-05-04 04:55 | 25.23305 | 55.47586 | 7293 ft | 246 kts | 271° |
| 2026-05-04 04:56 | 25.23349 | 55.45725 | 7115 ft | 245 kts | 271° |
| 2026-05-04 04:56 | 25.23393 | 55.43843 | 6962 ft | 245 kts | 271° |
| 2026-05-04 04:56 | 25.23438 | 55.41965 | 6794 ft | 244 kts | 271° |
| 2026-05-04 04:56 | 25.23482 | 55.40088 | 6628 ft | 244 kts | 271° |
| 2026-05-04 04:57 | 25.23527 | 55.38218 | 6461 ft | 244 kts | 271° |
| 2026-05-04 04:57 | 25.23571 | 55.36367 | 6329 ft | 236 kts | 271° |
| 2026-05-04 04:57 | 25.23614 | 55.34583 | 6148 ft | 229 kts | 271° |
| 2026-05-04 04:57 | 25.23685 | 55.32844 | 5999 ft | 223 kts | 276° |
| 2026-05-04 04:58 | 25.23987 | 55.31185 | 5946 ft | 220 kts | 283° |
| 2026-05-04 04:58 | 25.24385 | 55.29544 | 5862 ft | 221 kts | 283° |
| 2026-05-04 04:58 | 25.24798 | 55.27905 | 5788 ft | 222 kts | 284° |
| 2026-05-04 04:58 | 25.25213 | 55.26263 | 5730 ft | 222 kts | 283° |
| 2026-05-04 04:59 | 25.25624 | 55.24629 | 5656 ft | 220 kts | 283° |
| 2026-05-04 04:59 | 25.26031 | 55.23002 | 5583 ft | 219 kts | 283° |
| 2026-05-04 04:59 | 25.26437 | 55.21376 | 5510 ft | 219 kts | 283° |
| 2026-05-04 04:59 | 25.26869 | 55.19762 | 5442 ft | 219 kts | 289° |
| 2026-05-04 05:00 | 25.27554 | 55.18249 | 5378 ft | 221 kts | 297° |
| 2026-05-04 05:00 | 25.28356 | 55.16801 | 5307 ft | 221 kts | 299° |
| 2026-05-04 05:00 | 25.30008 | 55.13930 | 5155 ft | 221 kts | 299° |
| 2026-05-04 05:01 | 25.30822 | 55.12511 | 5105 ft | 221 kts | 300° |
| 2026-05-04 05:01 | 25.31640 | 55.11078 | 5023 ft | 220 kts | 300° |
| 2026-05-04 05:01 | 25.32447 | 55.09661 | 4979 ft | 217 kts | 300° |
| 2026-05-04 05:01 | 25.33236 | 55.08279 | 4887 ft | 209 kts | 300° |
| 2026-05-04 05:02 | 25.34008 | 55.06919 | 4799 ft | 206 kts | 300° |
| 2026-05-04 05:02 | 25.34745 | 55.05626 | 4787 ft | 192 kts | 299° |
| 2026-05-04 05:02 | 25.35448 | 55.04387 | 4717 ft | 190 kts | 299° |
| 2026-05-04 05:02 | 25.36151 | 55.03147 | 4629 ft | 190 kts | 300° |
| 2026-05-04 05:03 | 25.36853 | 55.01906 | 4526 ft | 190 kts | 300° |
| 2026-05-04 05:03 | 25.37557 | 55.00666 | 4468 ft | 190 kts | 300° |
| 2026-05-04 05:04 | 25.39634 | 54.97013 | 4333 ft | 186 kts | 300° |
| 2026-05-04 05:04 | 25.40411 | 54.95864 | 4275 ft | 189 kts | 314° |
| 2026-05-04 05:04 | 25.41556 | 54.95179 | 4219 ft | 196 kts | 345° |
| 2026-05-04 05:06 | 25.43993 | 55.02658 | 3748 ft | 215 kts | 129° |
| 2026-05-04 05:06 | 25.43155 | 55.04032 | 3675 ft | 216 kts | 124° |
| 2026-05-04 05:06 | 25.42368 | 55.05437 | 3629 ft | 216 kts | 123° |
| 2026-05-04 05:07 | 25.41589 | 55.06869 | 3618 ft | 217 kts | 121° |
| 2026-05-04 05:07 | 25.40828 | 55.08318 | 3620 ft | 218 kts | 122° |
| 2026-05-04 05:07 | 25.40052 | 55.09770 | 3620 ft | 220 kts | 122° |
| 2026-05-04 05:09 | 25.33338 | 55.21853 | 2927 ft | 224 kts | 123° |
| 2026-05-04 05:09 | 25.32532 | 55.23308 | 2619 ft | 221 kts | 123° |
| 2026-05-04 05:10 | 25.31739 | 55.24741 | 2324 ft | 216 kts | 122° |
| 2026-05-04 05:10 | 25.30975 | 55.26127 | 2063 ft | 206 kts | 123° |
| 2026-05-04 05:10 | 25.30251 | 55.27440 | 1794 ft | 193 kts | 123° |
| 2026-05-04 05:10 | 25.29587 | 55.28641 | 1579 ft | 175 kts | 123° |
| 2026-05-04 05:11 | 25.28978 | 55.29743 | 1356 ft | 161 kts | 123° |
| 2026-05-04 05:11 | 25.28419 | 55.30758 | 1151 ft | 150 kts | 123° |
| 2026-05-04 05:11 | 25.27888 | 55.31727 | 956 ft | 145 kts | 123° |
| 2026-05-04 05:11 | 25.27369 | 55.32672 | 790 ft | 142 kts | 126° |
| 2026-05-04 05:12 | 25.26865 | 55.33577 | 629 ft | 135 kts | 125° |
| 2026-05-04 05:12 | 25.26377 | 55.34458 | 457 ft | 134 kts | 126° |
| 2026-05-04 05:12 | 25.25896 | 55.35325 | 293 ft | 131 kts | 123° |
| 2026-05-04 05:12 | 25.25421 | 55.36191 | 113 ft | 132 kts | 124° |
| 2026-05-04 05:13 | 25.24955 | 55.37022 | 20 ft | 117 kts | 121° |
| 2026-05-04 05:13 | 25.24546 | 55.37658 | 17 ft | 78 kts | 128° |
| 2026-05-04 05:13 | 25.24298 | 55.37990 | 30 ft | 46 kts | 130° |
| 2026-05-04 05:13 | 25.24157 | 55.38171 | 35 ft | 23 kts | 131° |
| 2026-05-04 05:14 | 25.24090 | 55.38254 | 47 ft | 7 kts | 131° |
| 2026-05-04 05:14 | 25.24075 | 55.38273 | 48 ft | 0 kts | 131° |